Radiosonde details



Informationen :

Serial : V2950184
Type : Vaisala RS41-SGP
Date of production : 21.07.2023
Frequency : 403.000MHz
Launchsite : Galeao
Nearest town : Armação dos Búzios, BR (17km)

Altitude (Max) : 27023m at 2026-09-02 12:42:16
Speed (Max) : 193km/h at altitude 10017m

Average speed : 94km/h
Average ascent rate : 6m/s
Average descent rate : -19m/s
Ascent rate (Max) : 11.5m/s
Descent rate (Max): -36.9m/s

First frame :
PU1XMG-16 at 2026-09-02 11:31:36 at altitude 438m (OG: 396m)
Last frame :
PU1XMG-16 at 2026-09-02 13:00:25 at altitude 8535m (OG: 8493m)

Flighttime : 1h28m49s
Ascent time : 1h10m40s
Descent time : 18m9s
Uptime : -
Killtimer : 8h29m

Distance (Straight line distance): 125km

Distance (Route):


Frames : 603


Measurement :

Temperature : -23.7°C
Humidity : 1.9%
Pressure : 347.8hPa


Vertical profile (SkewT) :


Elevation profile :



Receiving stations :


Receiver Frames First received Last received
PU1XMG-16 603 2026-09-02 11:31:36 2026-09-02 13:00:25

Share per receiver :



All frames :


Receiver Date Latitude Longitude Direction Speed Altitude Climb Temperature Humidity Pressure Voltage Killtimer Uptime BKT XDATA
PU1XMG-162026-09-02 13:00:25-22.68651-42.0341882°122km/h8535m-8.8m/s-23.7°C1.9%347.8hPa0V00:00:0000:00:0000:00:00
PU1XMG-162026-09-02 13:00:16-22.68691-42.0371882°126km/h8615m-9.7m/s-24.1°C1.9%344.1hPa0V00:00:0000:00:0000:00:00
PU1XMG-162026-09-02 12:58:27-22.69955-42.0808174°172km/h9626m-9.6m/s-27.7°C3.6%299.3hPa0V00:00:0000:00:0000:00:00
PU1XMG-162026-09-02 12:58:21-22.70015-42.0830675°172km/h9675m-9.7m/s-28.1°C3.8%297.4hPa0V00:00:0000:00:0000:00:00
PU1XMG-162026-09-02 12:58:06-22.70192-42.0903077°170km/h9835m-10.5m/s-29.4°C4.3%290.8hPa0V00:00:0000:00:0000:00:00
PU1XMG-162026-09-02 12:58:00-22.70243-42.0925477°170km/h9885m-10.5m/s-29.8°C3.9%288.8hPa0V00:00:0000:00:0000:00:00
PU1XMG-162026-09-02 12:57:53-22.70314-42.0956677°166km/h9957m-10.9m/s-30.4°C3.4%285.9hPa0V00:00:0000:00:0000:00:00
PU1XMG-162026-09-02 12:57:47-22.70374-42.0983477°166km/h10018m-10.3m/s-30.9°C3.3%283.4hPa0V00:00:0000:00:0000:00:00
PU1XMG-162026-09-02 12:57:42-22.70434-42.1010278°168km/h10080m-10.7m/s-31.5°C3.4%280.9hPa0V00:00:0000:00:0000:00:00
PU1XMG-162026-09-02 12:55:31-22.71656-42.1585375°162km/h11525m-11.4m/s-44.5°C4.7%227.8hPa0V00:00:0000:00:0000:00:00
PU1XMG-162026-09-02 12:55:24-22.71737-42.1615274°164km/h11605m-11.4m/s-45.0°C4.8%225.1hPa0V00:00:0000:00:0000:00:00
PU1XMG-162026-09-02 12:55:07-22.71923-42.1683375°161km/h11790m-12.0m/s-46.3°C4.7%219.0hPa0V00:00:0000:00:0000:00:00
PU1XMG-162026-09-02 12:54:52-22.72094-42.1747476°162km/h11965m-11.8m/s-47.5°C4.9%213.3hPa0V00:00:0000:00:0000:00:00
PU1XMG-162026-09-02 12:54:39-22.72227-42.1802578°157km/h12120m-12.4m/s-48.7°C5.2%208.3hPa0V00:00:0000:00:0000:00:00
PU1XMG-162026-09-02 12:54:32-22.72286-42.1831579°153km/h12204m-12.3m/s-49.3°C5.4%205.7hPa0V00:00:0000:00:0000:00:00
PU1XMG-162026-09-02 12:54:27-22.72332-42.1856180°153km/h12276m-12.5m/s-49.7°C5.5%203.5hPa0V00:00:0000:00:0000:00:00
PU1XMG-162026-09-02 12:54:21-22.72376-42.1881081°155km/h12349m-12.0m/s-50.4°C5.8%201.2hPa0V00:00:0000:00:0000:00:00
PU1XMG-162026-09-02 12:54:04-22.72470-42.1948384°155km/h12541m-12.4m/s-52.2°C6.3%195.4hPa0V00:00:0000:00:0000:00:00
PU1XMG-162026-09-02 12:53:58-22.72498-42.1973784°157km/h12615m-12.4m/s-52.8°C6.3%193.2hPa0V00:00:0000:00:0000:00:00
PU1XMG-162026-09-02 12:53:49-22.72549-42.2016283°155km/h12739m-12.6m/s-53.8°C6.6%189.5hPa0V00:00:0000:00:0000:00:00
PU1XMG-162026-09-02 12:52:22-22.73069-42.2390580°162km/h13855m-13.5m/s-62.2°C7.8%158.8hPa0V00:00:0000:00:0000:00:00
PU1XMG-162026-09-02 12:52:15-22.73123-42.2421079°162km/h13949m-13.5m/s-62.8°C7.5%156.5hPa0V00:00:0000:00:0000:00:00
PU1XMG-162026-09-02 12:52:06-22.73199-42.2456076°166km/h14056m-13.8m/s-63.3°C6.5%153.8hPa0V00:00:0000:00:0000:00:00
PU1XMG-162026-09-02 12:52:00-22.73270-42.2481974°164km/h14137m-13.9m/s-63.0°C5.7%151.8hPa0V00:00:0000:00:0000:00:00
PU1XMG-162026-09-02 12:51:55-22.73344-42.2507073°157km/h14220m-14.0m/s-63.2°C5.4%149.7hPa0V00:00:0000:00:0000:00:00
PU1XMG-162026-09-02 12:51:04-22.74053-42.2674164°108km/h14925m-14.4m/s-64.5°C6.4%133.5hPa0V00:00:0000:00:0000:00:00
PU1XMG-162026-09-02 12:50:56-22.74154-42.2697068°97km/h15055m-14.9m/s-65.3°C7.0%130.7hPa0V00:00:0000:00:0000:00:00
PU1XMG-162026-09-02 12:50:49-22.74209-42.2714074°89km/h15157m-14.8m/s-65.9°C7.2%128.6hPa0V00:00:0000:00:0000:00:00
PU1XMG-162026-09-02 12:50:43-22.74238-42.2727981°86km/h15245m-15.1m/s-66.0°C7.2%126.7hPa0V00:00:0000:00:0000:00:00
PU1XMG-162026-09-02 12:44:34-22.73672-42.3240918km/h22679m-28.3m/s-58.2°C1.5%37.7hPa0V00:00:0000:00:0000:00:00
PU1XMG-162026-09-02 12:44:25-22.73719-42.32406344°24km/h22930m-28.1m/s-58.5°C1.5%36.2hPa0V00:00:0000:00:0000:00:00
PU1XMG-162026-09-02 12:44:18-22.73751-42.32386297°18km/h23125m-28.5m/s-59.2°C1.7%35.1hPa0V00:00:0000:00:0000:00:00
PU1XMG-162026-09-02 12:44:11-22.73756-42.32364281°11km/h23324m-28.9m/s-59.4°C1.9%34.0hPa0V08:29:0000:00:0000:00:00
PU1XMG-162026-09-02 12:43:21-22.73740-42.3249045°16km/h24818m-32.4m/s-55.4°C1.4%26.9hPa0V08:29:0000:00:0000:00:00
PU1XMG-162026-09-02 12:43:11-22.73769-42.32505359°9km/h25143m-32.9m/s-55.8°C1.4%25.5hPa0V00:00:0000:00:0000:00:00
PU1XMG-162026-09-02 12:43:05-22.73776-42.3250588°2km/h25340m-33.8m/s-55.8°C1.5%24.7hPa0V00:00:0000:00:0000:00:00
PU1XMG-162026-09-02 12:42:59-22.73776-42.3251486°11km/h25544m-34.2m/s-54.4°C1.4%23.9hPa0V00:00:0000:00:0000:00:00
PU1XMG-162026-09-02 12:42:53-22.73770-42.32536115°15km/h25750m-34.9m/s-53.7°C1.4%23.2hPa0V00:00:0000:00:0000:00:00
PU1XMG-162026-09-02 12:42:47-22.73755-42.32560120°24km/h25958m-35.0m/s-53.0°C1.4%22.4hPa0V00:00:0000:00:0000:00:00
PU1XMG-162026-09-02 12:42:42-22.73730-42.32598126°31km/h26167m-35.1m/s-51.4°C1.2%21.7hPa0V00:00:0000:00:0000:00:00
PU1XMG-162026-09-02 12:42:34-22.73707-42.32662103°38km/h26416m-36.7m/s-49.1°C1.0%20.9hPa0V00:00:0000:00:0000:00:00
PU1XMG-162026-09-02 12:42:29-22.73694-42.32726106°40km/h26634m-36.9m/s-47.8°C0.9%20.2hPa0V00:00:0000:00:0000:00:00
PU1XMG-162026-09-02 12:42:21-22.73686-42.3281685°51km/h26879m-33.7m/s-47.6°C0.9%19.4hPa0V00:00:0000:00:0000:00:00
PU1XMG-162026-09-02 12:42:16-22.73693-42.3287784°40km/h27023m-13.6m/s-47.9°C1.0%18.9hPa0V00:00:0000:00:0000:00:00
PU1XMG-162026-09-02 12:42:08-22.73699-42.3296896°44km/h26994m8.7m/s-47.8°C1.0%18.9hPa0V00:00:0000:00:0000:00:00
PU1XMG-162026-09-02 12:42:02-22.73696-42.3304387°47km/h26955m7.0m/s-47.6°C1.0%19.0hPa0V00:00:0000:00:0000:00:00
PU1XMG-162026-09-02 12:41:56-22.73698-42.3311792°44km/h26914m8.3m/s-47.7°C1.0%19.2hPa0V00:00:0000:00:0000:00:00
PU1XMG-162026-09-02 12:41:50-22.73695-42.3319195°49km/h26876m5.5m/s-47.8°C1.0%19.3hPa0V00:00:0000:00:0000:00:00
PU1XMG-162026-09-02 12:41:44-22.73690-42.33264100°51km/h26838m5.5m/s-47.8°C1.0%19.4hPa0V00:00:0000:00:0000:00:00
PU1XMG-162026-09-02 12:41:39-22.73676-42.33325106°44km/h26807m5.9m/s-47.9°C0.9%19.5hPa0V00:00:0000:00:0000:00:00
PU1XMG-162026-09-02 12:41:33-22.73668-42.3339499°37km/h26767m6.4m/s-48.0°C0.9%19.6hPa0V00:00:0000:00:0000:00:00
PU1XMG-162026-09-02 12:41:28-22.73647-42.33461122°40km/h26728m6.4m/s-47.9°C0.9%19.7hPa0V00:00:0000:00:0000:00:00
PU1XMG-162026-09-02 12:40:22-22.73456-42.34084137°29km/h26288m5.4m/s-51.3°C1.1%21.1hPa0V00:00:0000:00:0000:00:00
PU1XMG-162026-09-02 12:40:17-22.73440-42.34120103°27km/h26253m5.5m/s-51.5°C1.1%21.2hPa0V00:00:0000:00:0000:00:00
PU1XMG-162026-09-02 12:40:08-22.73427-42.34182119°26km/h26190m6.9m/s-51.6°C1.1%21.4hPa0V00:00:0000:00:0000:00:00
PU1XMG-162026-09-02 12:40:03-22.73415-42.34208107°26km/h26155m7.7m/s-52.1°C1.1%21.5hPa0V00:00:0000:00:0000:00:00
PU1XMG-162026-09-02 12:39:53-22.73375-42.34268145°31km/h26086m5.8m/s-52.5°C1.1%21.8hPa0V00:00:0000:00:0000:00:00
PU1XMG-162026-09-02 12:39:48-22.73343-42.34296143°29km/h26054m7.4m/s-52.6°C1.1%21.9hPa0V00:00:0000:00:0000:00:00
PU1XMG-162026-09-02 12:39:43-22.73319-42.34315135°22km/h26020m5.3m/s-52.9°C1.1%22.0hPa0V00:00:0000:00:0000:00:00
PU1XMG-162026-09-02 12:39:38-22.73301-42.34332138°24km/h25984m7.8m/s-53.0°C1.2%22.2hPa0V00:00:0000:00:0000:00:00
PU1XMG-162026-09-02 12:39:33-22.73280-42.34348153°16km/h25950m6.4m/s-53.1°C1.1%22.3hPa0V00:00:0000:00:0000:00:00
PU1XMG-162026-09-02 12:39:28-22.73259-42.34363166°11km/h25910m4.8m/s-53.8°C1.2%22.4hPa0V00:00:0000:00:0000:00:00
PU1XMG-162026-09-02 12:38:43-22.73184-42.34535155°13km/h25612m5.7m/s-54.0°C1.2%23.5hPa0V00:00:0000:00:0000:00:00
PU1XMG-162026-09-02 12:38:37-22.73173-42.3455385°20km/h25574m5.6m/s-54.3°C1.3%23.6hPa0V00:00:0000:00:0000:00:00
PU1XMG-162026-09-02 12:38:31-22.73177-42.3457164°7km/h25535m5.7m/s-54.5°C1.3%23.8hPa0V00:00:0000:00:0000:00:00
PU1XMG-162026-09-02 12:38:25-22.73176-42.3457163°4km/h25496m5.4m/s-54.5°C1.3%23.9hPa0V00:00:0000:00:0000:00:00
PU1XMG-162026-09-02 12:38:18-22.73175-42.34581143°5km/h25449m8.0m/s-54.9°C1.3%24.1hPa0V00:00:0000:00:0000:00:00
PU1XMG-162026-09-02 12:38:13-22.73173-42.3458465°9km/h25417m4.7m/s-55.6°C1.3%24.2hPa0V00:00:0000:00:0000:00:00
PU1XMG-162026-09-02 12:38:07-22.73171-42.34601110°20km/h25377m5.7m/s-55.9°C1.3%24.4hPa0V00:00:0000:00:0000:00:00
PU1XMG-162026-09-02 12:38:02-22.73164-42.3461741°5km/h25344m5.1m/s-55.9°C1.4%24.5hPa0V00:00:0000:00:0000:00:00
PU1XMG-162026-09-02 12:37:56-22.73175-42.34601322°15km/h25304m5.6m/s-55.7°C1.4%24.6hPa0V00:00:0000:00:0000:00:00
PU1XMG-162026-09-02 12:37:51-22.73186-42.3460041°13km/h25270m5.7m/s-55.5°C1.3%24.8hPa0V00:00:0000:00:0000:00:00
PU1XMG-162026-09-02 12:37:45-22.73201-42.34599326°18km/h25231m5.8m/s-55.5°C1.3%25.0hPa0V00:00:0000:00:0000:00:00
PU1XMG-162026-09-02 12:37:41-22.73219-42.3458612°18km/h25197m5.6m/s-55.8°C1.3%25.1hPa0V00:00:0000:00:0000:00:00
PU1XMG-162026-09-02 12:37:34-22.73236-42.3460246°16km/h25158m7.6m/s-56.0°C1.3%25.2hPa0V00:00:0000:00:0000:00:00
PU1XMG-162026-09-02 12:37:28-22.73253-42.3461529°15km/h25119m7.8m/s-56.1°C1.4%25.4hPa0V00:00:0000:00:0000:00:00
PU1XMG-162026-09-02 12:37:21-22.73274-42.3462532°18km/h25072m4.4m/s-56.0°C1.3%25.6hPa0V00:00:0000:00:0000:00:00
PU1XMG-162026-09-02 12:37:16-22.73291-42.3463843°22km/h25039m6.5m/s-56.0°C1.3%25.7hPa0V00:00:0000:00:0000:00:00
PU1XMG-162026-09-02 12:37:10-22.73308-42.3466160°16km/h25001m7.3m/s-56.0°C1.4%25.9hPa0V00:00:0000:00:0000:00:00
PU1XMG-162026-09-02 12:37:05-22.73323-42.3467936°18km/h24968m6.5m/s-56.0°C1.4%26.0hPa0V00:00:0000:00:0000:00:00
PU1XMG-162026-09-02 12:36:59-22.73349-42.3469221°18km/h24926m9.0m/s-55.8°C1.3%26.2hPa0V00:00:0000:00:0000:00:00
PU1XMG-162026-09-02 12:36:54-22.73373-42.3470223°20km/h24894m5.7m/s-55.5°C1.3%26.3hPa0V00:00:0000:00:0000:00:00
PU1XMG-162026-09-02 12:36:49-22.73388-42.34713359°11km/h24863m5.2m/s-55.4°C1.3%26.4hPa0V00:00:0000:00:0000:00:00
PU1XMG-162026-09-02 12:36:45-22.73414-42.3471416km/h24824m5.4m/s-55.3°C1.3%26.6hPa0V00:00:0000:00:0000:00:00
PU1XMG-162026-09-02 12:36:37-22.73436-42.3472734°15km/h24785m5.9m/s-55.4°C1.2%26.8hPa0V00:00:0000:00:0000:00:00
PU1XMG-162026-09-02 12:36:31-22.73457-42.3474123°16km/h24745m5.4m/s-55.4°C1.3%26.9hPa0V00:00:0000:00:0000:00:00
PU1XMG-162026-09-02 12:36:26-22.73477-42.3475646°16km/h24711m6.5m/s-55.7°C1.3%27.1hPa0V00:00:0000:00:0000:00:00
PU1XMG-162026-09-02 12:36:20-22.73496-42.3478051°18km/h24672m7.7m/s-55.9°C1.3%27.3hPa0V00:00:0000:00:0000:00:00
PU1XMG-162026-09-02 12:36:14-22.73517-42.3480639°18km/h24631m6.4m/s-55.8°C1.3%27.4hPa0V00:00:0000:00:0000:00:00
PU1XMG-162026-09-02 12:36:08-22.73539-42.3483264°18km/h24591m5.9m/s-55.6°C1.3%27.6hPa0V00:00:0000:00:0000:00:00
PU1XMG-162026-09-02 12:36:03-22.73551-42.3485760°18km/h24559m7.4m/s-55.6°C1.3%27.7hPa0V00:00:0000:00:0000:00:00
PU1XMG-162026-09-02 12:35:58-22.73565-42.3487952°18km/h24527m8.6m/s-55.5°C1.3%27.9hPa0V00:00:0000:00:0000:00:00
PU1XMG-162026-09-02 12:35:52-22.73574-42.3491789°29km/h24487m7.3m/s-55.4°C1.3%28.1hPa0V00:00:0000:00:0000:00:00
PU1XMG-162026-09-02 12:35:47-22.73579-42.3496678°26km/h24449m8.2m/s-55.3°C1.3%28.2hPa0V00:00:0000:00:0000:00:00
PU1XMG-162026-09-02 12:35:40-22.73583-42.3500398°24km/h24409m7.2m/s-55.4°C1.2%28.4hPa0V00:00:0000:00:0000:00:00
PU1XMG-162026-09-02 12:35:35-22.73582-42.3504782°27km/h24369m7.9m/s-55.6°C1.3%28.6hPa0V00:00:0000:00:0000:00:00
PU1XMG-162026-09-02 12:35:28-22.73580-42.35082122°18km/h24330m6.5m/s-55.6°C1.3%28.8hPa0V00:00:0000:00:0000:00:00
PU1XMG-162026-09-02 12:35:23-22.73567-42.35111111°29km/h24297m7.8m/s-55.7°C1.3%28.9hPa0V00:00:0000:00:0000:00:00
PU1XMG-162026-09-02 12:35:17-22.73555-42.35152113°24km/h24260m5.8m/s-55.8°C1.3%29.1hPa0V00:00:0000:00:0000:00:00
PU1XMG-162026-09-02 12:35:11-22.73542-42.3517898°13km/h24212m5.6m/s-55.7°C1.3%29.3hPa0V00:00:0000:00:0000:00:00
PU1XMG-162026-09-02 12:34:58-22.73536-42.3522347°11km/h24134m5.0m/s-55.5°C1.3%29.7hPa0V00:00:0000:00:0000:00:00
PU1XMG-162026-09-02 12:34:52-22.73551-42.3524354°18km/h24093m6.0m/s-55.5°C1.3%29.9hPa0V00:00:0000:00:0000:00:00
PU1XMG-162026-09-02 12:34:48-22.73562-42.3526455°13km/h24060m5.9m/s-55.4°C1.3%30.0hPa0V00:00:0000:00:0000:00:00
PU1XMG-162026-09-02 12:34:40-22.73572-42.3528748°16km/h24008m7.3m/s-55.6°C1.3%30.3hPa0V00:00:0000:00:0000:00:00
PU1XMG-162026-09-02 12:34:35-22.73586-42.3530360°15km/h23976m7.5m/s-55.6°C1.3%30.4hPa0V00:00:0000:00:0000:00:00
PU1XMG-162026-09-02 12:34:27-22.73584-42.3532499°11km/h23932m4.9m/s-55.4°C1.2%30.7hPa0V00:00:0000:00:0000:00:00
PU1XMG-162026-09-02 12:34:22-22.73579-42.35337115°16km/h23898m7.1m/s-56.0°C1.3%30.8hPa0V00:00:0000:00:0000:00:00
PU1XMG-162026-09-02 12:34:15-22.73553-42.35362148°18km/h23853m4.9m/s-56.0°C1.3%31.0hPa0V00:00:0000:00:0000:00:00
PU1XMG-162026-09-02 12:34:09-22.73535-42.35370159°18km/h23816m4.8m/s-56.2°C1.3%31.2hPa0V00:00:0000:00:0000:00:00
PU1XMG-162026-09-02 12:34:03-22.73503-42.35379159°16km/h23778m6.3m/s-56.6°C1.3%31.4hPa0V00:00:0000:00:0000:00:00
PU1XMG-162026-09-02 12:33:58-22.73494-42.353830km/h23745m4.1m/s-56.9°C1.3%31.6hPa0V00:00:0000:00:0000:00:00
PU1XMG-162026-09-02 12:33:52-22.73485-42.35376191°13km/h23708m6.4m/s-57.6°C1.4%31.7hPa0V00:00:0000:00:0000:00:00
PU1XMG-162026-09-02 12:33:48-22.73464-42.35372197°15km/h23675m5.2m/s-57.9°C1.5%31.9hPa0V00:00:0000:00:0000:00:00
PU1XMG-162026-09-02 12:33:42-22.73457-42.35361262°7km/h23643m4.8m/s-57.8°C1.4%32.1hPa0V00:00:0000:00:0000:00:00
PU1XMG-162026-09-02 12:33:37-22.73441-42.35349191°15km/h23605m4.3m/s-57.5°C1.4%32.3hPa0V00:00:0000:00:0000:00:00
PU1XMG-162026-09-02 12:33:31-22.73423-42.35334240°15km/h23575m6.9m/s-57.6°C1.4%32.4hPa0V00:00:0000:00:0000:00:00
PU1XMG-162026-09-02 12:33:25-22.73422-42.35319285°4km/h23538m8.3m/s-57.7°C1.4%32.6hPa0V00:00:0000:00:0000:00:00
PU1XMG-162026-09-02 12:33:18-22.73414-42.35311191°5km/h23493m6.0m/s-58.1°C1.4%32.9hPa0V00:00:0000:00:0000:00:00
PU1XMG-162026-09-02 12:33:13-22.73417-42.35300316°15km/h23461m8.5m/s-58.7°C1.5%33.0hPa0V00:00:0000:00:0000:00:00
PU1XMG-162026-09-02 12:33:07-22.73433-42.35280309°13km/h23423m5.4m/s-59.1°C1.5%33.2hPa0V00:00:0000:00:0000:00:00
PU1XMG-162026-09-02 12:33:01-22.73434-42.35262244°5km/h23385m5.6m/s-59.3°C1.5%33.4hPa0V00:00:0000:00:0000:00:00
PU1XMG-162026-09-02 12:32:55-22.73431-42.35250289°7km/h23345m5.7m/s-59.4°C1.5%33.6hPa0V00:00:0000:00:0000:00:00
PU1XMG-162026-09-02 12:32:49-22.73429-42.35232245°15km/h23305m8.3m/s-59.4°C1.6%33.8hPa0V00:00:0000:00:0000:00:00
PU1XMG-162026-09-02 12:32:43-22.73425-42.35210280°20km/h23264m5.9m/s-59.5°C1.6%34.1hPa0V00:00:0000:00:0000:00:00
PU1XMG-162026-09-02 12:32:38-22.73432-42.35182276°18km/h23226m4.6m/s-59.3°C1.5%34.3hPa0V00:00:0000:00:0000:00:00
PU1XMG-162026-09-02 12:32:31-22.73439-42.35156301°26km/h23189m6.8m/s-59.3°C1.5%34.5hPa0V00:00:0000:00:0000:00:00
PU1XMG-162026-09-02 12:32:26-22.73459-42.35129311°26km/h23157m7.4m/s-59.1°C1.5%34.7hPa0V00:00:0000:00:0000:00:00
PU1XMG-162026-09-02 12:32:20-22.73479-42.35108328°20km/h23118m7.3m/s-58.9°C1.5%34.9hPa0V00:00:0000:00:0000:00:00
PU1XMG-162026-09-02 12:32:15-22.73507-42.35093334°29km/h23085m7.2m/s-58.8°C1.5%35.1hPa0V00:00:0000:00:0000:00:00
PU1XMG-162026-09-02 12:32:09-22.73541-42.35069331°20km/h23039m7.8m/s-58.9°C1.5%35.3hPa0V00:00:0000:00:0000:00:00
PU1XMG-162026-09-02 12:32:02-22.73581-42.35059348°33km/h23002m8.2m/s-58.7°C1.5%35.6hPa0V00:00:0000:00:0000:00:00
PU1XMG-162026-09-02 12:31:55-22.73634-42.35046360°16km/h22954m3.9m/s-58.5°C1.5%35.8hPa0V00:00:0000:00:0000:00:00
PU1XMG-162026-09-02 12:31:50-22.73656-42.35047358°18km/h22918m5.0m/s-58.3°C1.5%36.1hPa0V00:00:0000:00:0000:00:00
PU1XMG-162026-09-02 12:31:44-22.73696-42.35042350°22km/h22878m5.8m/s-58.0°C1.4%36.2hPa0V00:00:0000:00:0000:00:00
PU1XMG-162026-09-02 12:31:40-22.73723-42.3504115km/h22845m8.2m/s-57.9°C1.4%36.4hPa0V00:00:0000:00:0000:00:00
PU1XMG-162026-09-02 12:31:34-22.73742-42.3504515km/h22812m7.7m/s-57.9°C1.4%36.6hPa0V00:00:0000:00:0000:00:00
PU1XMG-162026-09-02 12:31:28-22.73777-42.35042353°18km/h22766m5.7m/s-57.8°C1.4%36.9hPa0V00:00:0000:00:0000:00:00
PU1XMG-162026-09-02 12:30:44-22.73959-42.35098353°16km/h22478m5.0m/s-58.5°C1.5%38.7hPa0V00:00:0000:00:0000:00:00
PU1XMG-162026-09-02 12:30:28-22.74004-42.35075344°22km/h22381m5.6m/s-58.5°C1.5%39.3hPa0V00:00:0000:00:0000:00:00
PU1XMG-162026-09-02 12:30:06-22.74095-42.3509560°31km/h22238m5.6m/s-59.9°C1.5%40.2hPa0V00:00:0000:00:0000:00:00
PU1XMG-162026-09-02 12:29:58-22.74145-42.3514932°31km/h22188m6.2m/s-60.2°C1.6%40.5hPa0V00:00:0000:00:0000:00:00
PU1XMG-162026-09-02 12:29:51-22.74181-42.3517433°18km/h22146m5.0m/s-60.2°C1.5%40.7hPa0V00:00:0000:00:0000:00:00
PU1XMG-162026-09-02 12:29:46-22.74203-42.3519242°22km/h22113m6.3m/s-60.2°C1.6%41.0hPa0V00:00:0000:00:0000:00:00
PU1XMG-162026-09-02 12:29:40-22.74225-42.3521843°18km/h22078m5.3m/s-60.3°C1.5%41.2hPa0V00:00:0000:00:0000:00:00
PU1XMG-162026-09-02 12:29:29-22.74255-42.3526178°13km/h22005m7.3m/s-60.4°C1.6%41.7hPa0V00:00:0000:00:0000:00:00
PU1XMG-162026-09-02 12:29:21-22.74269-42.3527522°13km/h21964m8.2m/s-60.6°C1.6%42.0hPa0V00:00:0000:00:0000:00:00
PU1XMG-162026-09-02 12:29:17-22.74289-42.3528318°20km/h21932m7.7m/s-60.4°C1.6%42.2hPa0V00:00:0000:00:0000:00:00
PU1XMG-162026-09-02 12:28:48-22.74442-42.3534140°20km/h21762m4.6m/s-59.6°C1.5%43.4hPa0V00:00:0000:00:0000:00:00
PU1XMG-162026-09-02 12:28:42-22.74467-42.3536938°27km/h21728m6.2m/s-59.9°C1.5%43.6hPa0V00:00:0000:00:0000:00:00
PU1XMG-162026-09-02 12:28:37-22.74499-42.3538622°24km/h21698m5.3m/s-60.1°C1.6%43.8hPa0V00:00:0000:00:0000:00:00
PU1XMG-162026-09-02 12:28:31-22.74517-42.3540969°20km/h21662m6.6m/s-59.9°C1.6%44.1hPa0V00:00:0000:00:0000:00:00
PU1XMG-162026-09-02 12:28:26-22.74541-42.3543128°29km/h21633m6.2m/s-59.8°C1.5%44.3hPa0V00:00:0000:00:0000:00:00
PU1XMG-162026-09-02 12:28:19-22.74582-42.3546769°33km/h21591m5.3m/s-59.8°C1.5%44.6hPa0V00:00:0000:00:0000:00:00
PU1XMG-162026-09-02 12:28:13-22.74601-42.3550747°27km/h21556m4.3m/s-59.8°C1.5%44.8hPa0V00:00:0000:00:0000:00:00
PU1XMG-162026-09-02 12:28:04-22.74641-42.3556678°35km/h21502m7.6m/s-60.4°C1.6%45.2hPa0V00:00:0000:00:0000:00:00
PU1XMG-162026-09-02 12:27:59-22.74652-42.3561362°24km/h21467m5.9m/s-60.4°C1.6%45.5hPa0V00:00:0000:00:0000:00:00
PU1XMG-162026-09-02 12:25:05-22.74230-42.36781138°20km/h20430m5.1m/s-62.4°C1.9%53.7hPa0V00:00:0000:00:0000:00:00
PU1XMG-162026-09-02 12:24:58-22.74187-42.36784176°26km/h20378m6.5m/s-62.8°C1.8%54.2hPa0V00:00:0000:00:0000:00:00
PU1XMG-162026-09-02 12:24:50-22.74146-42.36797163°22km/h20334m5.7m/s-62.5°C1.9%54.6hPa0V00:00:0000:00:0000:00:00
PU1XMG-162026-09-02 12:24:45-22.74123-42.36801180°16km/h20302m7.5m/s-62.8°C1.9%54.9hPa0V00:00:0000:00:0000:00:00
PU1XMG-162026-09-02 12:24:40-22.74104-42.36808143°16km/h20272m6.4m/s-63.0°C1.9%55.1hPa0V00:00:0000:00:0000:00:00
PU1XMG-162026-09-02 12:24:35-22.74089-42.36820139°15km/h20241m5.1m/s-63.6°C2.1%55.4hPa0V00:00:0000:00:0000:00:00
PU1XMG-162026-09-02 12:24:29-22.74065-42.36826182°26km/h20202m7.3m/s-63.8°C2.0%55.8hPa0V00:00:0000:00:0000:00:00
PU1XMG-162026-09-02 12:24:24-22.74031-42.36817206°26km/h20170m6.9m/s-63.4°C2.0%56.1hPa0V00:00:0000:00:0000:00:00
PU1XMG-162026-09-02 12:24:19-22.74009-42.36798225°18km/h20137m7.1m/s-63.4°C2.0%56.3hPa0V00:00:0000:00:0000:00:00
PU1XMG-162026-09-02 12:24:13-22.73975-42.36785197°29km/h20102m7.3m/s-64.2°C2.2%56.7hPa0V00:00:0000:00:0000:00:00
PU1XMG-162026-09-02 12:24:09-22.73947-42.36775196°20km/h20070m5.8m/s-64.2°C2.2%57.0hPa0V00:00:0000:00:0000:00:00
PU1XMG-162026-09-02 12:24:02-22.73921-42.36768198°15km/h20030m4.9m/s-63.7°C2.1%57.4hPa0V00:00:0000:00:0000:00:00
PU1XMG-162026-09-02 12:22:48-22.73854-42.3711451°26km/h19551m6.2m/s-65.2°C2.4%62.0hPa0V00:00:0000:00:0000:00:00
PU1XMG-162026-09-02 12:22:40-22.73875-42.3714363°15km/h19500m7.0m/s-65.1°C2.5%62.5hPa0V00:00:0000:00:0000:00:00
PU1XMG-162026-09-02 12:22:34-22.73889-42.3716753°20km/h19465m7.1m/s-64.9°C2.3%62.9hPa0V00:00:0000:00:0000:00:00
PU1XMG-162026-09-02 12:22:23-22.73911-42.3721477°16km/h19380m11.5m/s-64.6°C2.2%63.7hPa0V00:00:0000:00:0000:00:00
PU1XMG-162026-09-02 12:22:18-22.73924-42.3724273°18km/h19339m7.8m/s-64.8°C2.3%64.2hPa0V00:00:0000:00:0000:00:00
PU1XMG-162026-09-02 12:22:09-22.73921-42.3728893°22km/h19283m5.3m/s-64.7°C2.4%64.8hPa0V00:00:0000:00:0000:00:00
PU1XMG-162026-09-02 12:22:04-22.73924-42.3731780°20km/h19244m7.6m/s-64.5°C2.3%65.2hPa0V00:00:0000:00:0000:00:00
PU1XMG-162026-09-02 12:21:58-22.73925-42.3735284°20km/h19203m8.5m/s-64.4°C2.3%65.7hPa0V00:00:0000:00:0000:00:00
PU1XMG-162026-09-02 12:21:47-22.73926-42.3741091°18km/h19132m6.1m/s-63.7°C2.2%66.4hPa0V00:00:0000:00:0000:00:00
PU1XMG-162026-09-02 12:21:42-22.73926-42.3743794°20km/h19101m8.7m/s-63.5°C2.3%66.8hPa0V00:00:0000:00:0000:00:00
PU1XMG-162026-09-02 12:21:36-22.73921-42.37468105°18km/h19062m7.7m/s-63.3°C2.3%67.3hPa0V00:00:0000:00:0000:00:00
PU1XMG-162026-09-02 12:21:29-22.73914-42.3751096°24km/h19015m5.6m/s-63.1°C2.2%67.7hPa0V00:00:0000:00:0000:00:00
PU1XMG-162026-09-02 12:21:24-22.73914-42.3754788°24km/h18973m6.4m/s-62.8°C2.2%68.2hPa0V00:00:0000:00:0000:00:00
PU1XMG-162026-09-02 12:20:14-22.73858-42.38268122°57km/h18529m8.8m/s-64.7°C2.6%73.3hPa0V00:00:0000:00:0000:00:00
PU1XMG-162026-09-02 12:17:41-22.73308-42.4055279°93km/h17518m5.9m/s-66.6°C4.7%86.4hPa0V00:00:0000:00:0000:00:00
PU1XMG-162026-09-02 12:17:30-22.73368-42.4083775°86km/h17451m4.5m/s-67.2°C5.3%87.4hPa0V00:00:0000:00:0000:00:00
PU1XMG-162026-09-02 12:17:21-22.73411-42.4101476°84km/h17406m5.8m/s-67.6°C5.6%88.1hPa0V00:00:0000:00:0000:00:00
PU1XMG-162026-09-02 12:17:14-22.73457-42.4118275°78km/h17356m7.1m/s-67.9°C5.6%88.8hPa0V00:00:0000:00:0000:00:00
PU1XMG-162026-09-02 12:17:04-22.73517-42.4139674°84km/h17301m4.2m/s-68.1°C6.1%89.7hPa0V00:00:0000:00:0000:00:00
PU1XMG-162026-09-02 12:16:58-22.73544-42.4152679°84km/h17268m5.8m/s-68.1°C6.0%90.2hPa0V00:00:0000:00:0000:00:00
PU1XMG-162026-09-02 12:16:52-22.73576-42.4163870°89km/h17240m4.3m/s-68.0°C6.0%90.5hPa0V00:00:0000:00:0000:00:00
PU1XMG-162026-09-02 12:16:43-22.73631-42.4184579°89km/h17191m4.4m/s-68.8°C6.6%91.3hPa0V00:00:0000:00:0000:00:00
PU1XMG-162026-09-02 12:16:36-22.73660-42.4201783°93km/h17150m3.8m/s-68.8°C6.7%91.9hPa0V00:00:0000:00:0000:00:00
PU1XMG-162026-09-02 12:16:30-22.73675-42.4216787°91km/h17117m5.9m/s-68.7°C7.0%92.4hPa0V00:00:0000:00:0000:00:00
PU1XMG-162026-09-02 12:16:24-22.73683-42.4231387°93km/h17084m6.6m/s-68.6°C7.2%92.9hPa0V00:00:0000:00:0000:00:00
PU1XMG-162026-09-02 12:16:19-22.73696-42.4247285°99km/h17051m5.9m/s-68.7°C6.9%93.4hPa0V00:00:0000:00:0000:00:00
PU1XMG-162026-09-02 12:16:10-22.73710-42.4268587°97km/h17008m7.5m/s-68.5°C7.2%94.1hPa0V00:00:0000:00:0000:00:00
PU1XMG-162026-09-02 12:16:04-22.73717-42.4283790°89km/h16973m6.9m/s-69.0°C6.9%94.7hPa0V00:00:0000:00:0000:00:00
PU1XMG-162026-09-02 12:15:57-22.73716-42.4301790°102km/h16935m6.7m/s-69.6°C7.2%95.3hPa0V00:00:0000:00:0000:00:00
PU1XMG-162026-09-02 12:15:51-22.73712-42.4317996°93km/h16903m5.2m/s-69.8°C7.8%95.8hPa0V00:00:0000:00:0000:00:00
PU1XMG-162026-09-02 12:15:46-22.73691-42.43336101°100km/h16869m7.2m/s-70.1°C7.9%96.4hPa0V00:00:0000:00:0000:00:00
PU1XMG-162026-09-02 12:15:40-22.73669-42.4350299°102km/h16834m4.8m/s-70.2°C7.7%96.9hPa0V00:00:0000:00:0000:00:00
PU1XMG-162026-09-02 12:15:34-22.73646-42.43636105°102km/h16808m5.3m/s-70.1°C7.7%97.4hPa0V00:00:0000:00:0000:00:00
PU1XMG-162026-09-02 12:15:28-22.73612-42.43800105°100km/h16773m5.5m/s-70.1°C8.2%98.0hPa0V00:00:0000:00:0000:00:00
PU1XMG-162026-09-02 12:15:22-22.73568-42.43962108°106km/h16738m6.7m/s-69.9°C7.8%98.5hPa0V00:00:0000:00:0000:00:00
PU1XMG-162026-09-02 12:15:01-22.73399-42.44541112°102km/h16612m5.4m/s-69.9°C8.0%100.6hPa0V00:00:0000:00:0000:00:00
PU1XMG-162026-09-02 12:14:56-22.73357-42.44680108°110km/h16586m6.9m/s-69.8°C7.6%101.0hPa0V00:00:0000:00:0000:00:00
PU1XMG-162026-09-02 12:14:20-22.73035-42.45692107°111km/h16387m4.8m/s-70.5°C7.9%104.4hPa0V00:00:0000:00:0000:00:00
PU1XMG-162026-09-02 12:13:34-22.72746-42.46878109°122km/h16091m9.3m/s-67.9°C7.1%109.7hPa0V00:00:0000:00:0000:00:00
PU1XMG-162026-09-02 12:13:22-22.72669-42.47198101°95km/h15997m7.3m/s-67.8°C6.7%111.5hPa0V00:00:0000:00:0000:00:00
PU1XMG-162026-09-02 12:13:01-22.72644-42.4781191°104km/h15876m4.9m/s-68.0°C7.1%113.8hPa0V00:00:0000:00:0000:00:00
PU1XMG-162026-09-02 12:12:34-22.72589-42.4857099°104km/h15738m6.0m/s-67.7°C6.9%116.4hPa0V00:00:0000:00:0000:00:00
PU1XMG-162026-09-02 12:12:11-22.72493-42.49258102°97km/h15609m6.1m/s-67.2°C6.9%118.9hPa0V00:00:0000:00:0000:00:00
PU1XMG-162026-09-02 12:11:01-22.72538-42.5096577°97km/h15216m5.4m/s-65.9°C5.9%126.9hPa0V00:00:0000:00:0000:00:00
PU1XMG-162026-09-02 12:10:54-22.72592-42.5112766°99km/h15171m4.6m/s-65.6°C5.8%127.8hPa0V00:00:0000:00:0000:00:00
PU1XMG-162026-09-02 12:10:47-22.72645-42.5130875°95km/h15129m6.6m/s-65.5°C5.4%128.7hPa0V00:00:0000:00:0000:00:00
PU1XMG-162026-09-02 12:10:39-22.72726-42.5154762°100km/h15052m9.1m/s-65.2°C4.7%130.4hPa0V00:00:0000:00:0000:00:00
PU1XMG-162026-09-02 12:10:08-22.73083-42.5226960°110km/h14861m8.6m/s-63.8°C4.1%134.4hPa0V00:00:0000:00:0000:00:00
PU1XMG-162026-09-02 12:10:01-22.73182-42.5245661°115km/h14815m5.9m/s-63.8°C4.2%135.4hPa0V00:00:0000:00:0000:00:00
PU1XMG-162026-09-02 12:09:55-22.73273-42.5261860°117km/h14780m7.5m/s-63.9°C4.1%136.3hPa0V00:00:0000:00:0000:00:00
PU1XMG-162026-09-02 12:09:49-22.73369-42.5279060°126km/h14741m6.3m/s-63.7°C4.1%137.1hPa0V00:00:0000:00:0000:00:00
PU1XMG-162026-09-02 12:09:04-22.74140-42.5428466°146km/h14475m5.5m/s-63.1°C5.8%143.2hPa0V00:00:0000:00:0000:00:00
PU1XMG-162026-09-02 12:08:58-22.74240-42.5454069°142km/h14433m5.1m/s-62.9°C5.6%144.2hPa0V00:00:0000:00:0000:00:00
PU1XMG-162026-09-02 12:08:50-22.74335-42.5479968°148km/h14392m4.6m/s-62.5°C6.0%145.2hPa0V00:00:0000:00:0000:00:00
PU1XMG-162026-09-02 12:08:45-22.74407-42.5498468°146km/h14362m7.3m/s-62.5°C6.6%145.9hPa0V00:00:0000:00:0000:00:00
PU1XMG-162026-09-02 12:08:40-22.74476-42.5516770°144km/h14333m7.9m/s-62.7°C7.0%146.5hPa0V00:00:0000:00:0000:00:00
PU1XMG-162026-09-02 12:08:34-22.74551-42.5539472°148km/h14296m5.3m/s-63.0°C7.5%147.4hPa0V00:00:0000:00:0000:00:00
PU1XMG-162026-09-02 12:08:29-22.74614-42.5558671°151km/h14266m8.1m/s-63.4°C8.1%148.1hPa0V00:00:0000:00:0000:00:00
PU1XMG-162026-09-02 12:08:23-22.74697-42.5582972°159km/h14230m4.7m/s-63.2°C8.6%149.0hPa0V00:00:0000:00:0000:00:00
PU1XMG-162026-09-02 12:08:18-22.74764-42.5603872°161km/h14198m7.7m/s-63.3°C9.9%149.8hPa0V00:00:0000:00:0000:00:00
PU1XMG-162026-09-02 12:08:12-22.74844-42.5628573°164km/h14161m5.1m/s-63.6°C10.3%150.6hPa0V00:00:0000:00:0000:00:00
PU1XMG-162026-09-02 12:08:07-22.74908-42.5650374°168km/h14130m5.1m/s-63.9°C11.0%151.4hPa0V00:00:0000:00:0000:00:00
PU1XMG-162026-09-02 12:08:01-22.74981-42.5676274°162km/h14093m7.2m/s-63.9°C11.1%152.3hPa0V00:00:0000:00:0000:00:00
PU1XMG-162026-09-02 12:07:56-22.75040-42.5697675°164km/h14062m7.4m/s-63.9°C11.5%153.1hPa0V00:00:0000:00:0000:00:00
PU1XMG-162026-09-02 12:07:50-22.75099-42.5723278°159km/h14025m8.3m/s-63.5°C11.3%154.0hPa0V00:00:0000:00:0000:00:00
PU1XMG-162026-09-02 12:07:45-22.75145-42.5744778°161km/h13995m8.8m/s-63.3°C11.3%154.7hPa0V00:00:0000:00:0000:00:00
PU1XMG-162026-09-02 12:07:39-22.75198-42.5770778°161km/h13956m9.5m/s-63.0°C10.3%155.7hPa0V00:00:0000:00:0000:00:00
PU1XMG-162026-09-02 12:07:17-22.75412-42.5864977°161km/h13814m5.8m/s-62.1°C9.5%159.3hPa0V00:00:0000:00:0000:00:00
PU1XMG-162026-09-02 12:07:05-22.75534-42.5915977°161km/h13742m5.4m/s-61.4°C9.4%161.3hPa0V00:00:0000:00:0000:00:00
PU1XMG-162026-09-02 12:06:59-22.75592-42.5941277°157km/h13703m6.6m/s-61.1°C9.1%162.2hPa0V00:00:0000:00:0000:00:00
PU1XMG-162026-09-02 12:06:54-22.75642-42.5962376°162km/h13671m5.9m/s-61.0°C8.7%163.0hPa0V00:00:0000:00:0000:00:00
PU1XMG-162026-09-02 12:06:49-22.75701-42.5988478°162km/h13634m7.6m/s-60.6°C8.9%164.0hPa0V00:00:0000:00:0000:00:00
PU1XMG-162026-09-02 12:06:44-22.75748-42.6010278°162km/h13604m7.6m/s-60.3°C8.8%164.8hPa0V00:00:0000:00:0000:00:00
PU1XMG-162026-09-02 12:06:37-22.75801-42.6035879°161km/h13568m5.2m/s-60.1°C8.5%165.7hPa0V00:00:0000:00:0000:00:00
PU1XMG-162026-09-02 12:06:33-22.75845-42.6057678°164km/h13538m4.4m/s-59.7°C8.3%166.5hPa0V00:00:0000:00:0000:00:00
PU1XMG-162026-09-02 12:06:27-22.75888-42.6079480°162km/h13507m5.3m/s-59.5°C8.1%167.3hPa0V00:00:0000:00:0000:00:00
PU1XMG-162026-09-02 12:06:22-22.75928-42.6101179°162km/h13476m7.9m/s-59.3°C7.9%168.2hPa0V00:00:0000:00:0000:00:00
PU1XMG-162026-09-02 12:06:16-22.75981-42.6127480°161km/h13440m5.0m/s-58.9°C8.0%169.2hPa0V00:00:0000:00:0000:00:00
PU1XMG-162026-09-02 12:06:11-22.76017-42.6149380°164km/h13409m4.8m/s-58.7°C7.9%170.1hPa0V00:00:0000:00:0000:00:00
PU1XMG-162026-09-02 12:05:59-22.76118-42.6201280°155km/h13333m5.0m/s-58.1°C7.4%172.1hPa0V00:00:0000:00:0000:00:00
PU1XMG-162026-09-02 12:05:54-22.76156-42.6222380°159km/h13300m8.8m/s-57.8°C7.4%172.9hPa0V00:00:0000:00:0000:00:00
PU1XMG-162026-09-02 12:05:48-22.76200-42.6248482°161km/h13265m4.0m/s-57.5°C7.6%173.9hPa0V00:00:0000:00:0000:00:00
PU1XMG-162026-09-02 12:05:44-22.76233-42.6270381°161km/h13236m5.2m/s-57.4°C7.4%174.8hPa0V00:00:0000:00:0000:00:00
PU1XMG-162026-09-02 12:04:54-22.76544-42.6486380°173km/h12953m5.2m/s-55.5°C7.2%182.7hPa0V00:00:0000:00:0000:00:00
PU1XMG-162026-09-02 12:04:48-22.76587-42.6512681°157km/h12920m6.5m/s-55.3°C7.1%183.6hPa0V00:00:0000:00:0000:00:00
PU1XMG-162026-09-02 12:04:43-22.76620-42.6533982°161km/h12890m8.7m/s-55.1°C6.9%184.5hPa0V00:00:0000:00:0000:00:00
PU1XMG-162026-09-02 12:04:37-22.76663-42.6560080°161km/h12853m4.4m/s-54.8°C6.8%185.6hPa0V00:00:0000:00:0000:00:00
PU1XMG-162026-09-02 12:04:31-22.76709-42.6586081°161km/h12815m6.7m/s-54.5°C6.9%186.6hPa0V00:00:0000:00:0000:00:00
PU1XMG-162026-09-02 12:04:26-22.76749-42.6611881°161km/h12777m7.0m/s-54.4°C6.8%187.7hPa0V00:00:0000:00:0000:00:00
PU1XMG-162026-09-02 12:04:20-22.76783-42.6633881°162km/h12748m5.8m/s-54.1°C6.9%188.6hPa0V00:00:0000:00:0000:00:00
PU1XMG-162026-09-02 12:04:15-22.76825-42.6659682°162km/h12709m7.7m/s-53.7°C6.6%189.8hPa0V00:00:0000:00:0000:00:00
PU1XMG-162026-09-02 12:04:08-22.76864-42.6686683°166km/h12671m4.7m/s-53.3°C6.4%190.9hPa0V00:00:0000:00:0000:00:00
PU1XMG-162026-09-02 12:04:02-22.76900-42.6713481°164km/h12639m5.5m/s-53.1°C6.8%191.8hPa0V00:00:0000:00:0000:00:00
PU1XMG-162026-09-02 12:03:57-22.76937-42.6735881°166km/h12611m6.4m/s-53.0°C6.9%192.6hPa0V00:00:0000:00:0000:00:00
PU1XMG-162026-09-02 12:03:49-22.76989-42.6770181°161km/h12569m5.3m/s-52.6°C6.5%193.9hPa0V00:00:0000:00:0000:00:00
PU1XMG-162026-09-02 12:03:43-22.77042-42.6796878°164km/h12536m4.6m/s-52.4°C6.7%194.9hPa0V00:00:0000:00:0000:00:00
PU1XMG-162026-09-02 12:03:37-22.77092-42.6822080°164km/h12501m4.4m/s-52.0°C6.4%196.0hPa0V00:00:0000:00:0000:00:00
PU1XMG-162026-09-02 12:03:31-22.77142-42.6848976°157km/h12463m5.0m/s-51.7°C6.3%197.1hPa0V00:00:0000:00:0000:00:00
PU1XMG-162026-09-02 12:03:24-22.77213-42.6878079°162km/h12416m7.2m/s-51.2°C6.0%198.5hPa0V00:00:0000:00:0000:00:00
PU1XMG-162026-09-02 12:03:17-22.77281-42.6907975°161km/h12368m7.7m/s-50.8°C6.1%200.0hPa0V00:00:0000:00:0000:00:00
PU1XMG-162026-09-02 12:03:11-22.77345-42.6932475°148km/h12328m8.1m/s-50.4°C5.7%201.2hPa0V00:00:0000:00:0000:00:00
PU1XMG-162026-09-02 12:03:05-22.77403-42.6956577°162km/h12288m5.4m/s-50.2°C6.0%202.4hPa0V00:00:0000:00:0000:00:00
PU1XMG-162026-09-02 12:02:58-22.77482-42.6986274°157km/h12242m9.7m/s-49.8°C5.5%203.9hPa0V00:00:0000:00:0000:00:00
PU1XMG-162026-09-02 12:02:46-22.77619-42.7036674°155km/h12170m5.7m/s-49.2°C5.7%206.1hPa0V00:00:0000:00:0000:00:00
PU1XMG-162026-09-02 12:02:40-22.77693-42.7062072°166km/h12132m6.5m/s-49.0°C5.4%207.3hPa0V00:00:0000:00:0000:00:00
PU1XMG-162026-09-02 12:02:35-22.77771-42.7087572°162km/h12094m6.3m/s-48.6°C5.7%208.5hPa0V00:00:0000:00:0000:00:00
PU1XMG-162026-09-02 12:02:29-22.77839-42.7108771°168km/h12062m6.0m/s-48.5°C5.2%209.5hPa0V00:00:0000:00:0000:00:00
PU1XMG-162026-09-02 12:02:25-22.77911-42.7130672°168km/h12033m6.2m/s-48.1°C5.5%210.5hPa0V00:00:0000:00:0000:00:00
PU1XMG-162026-09-02 12:02:20-22.77979-42.7152273°164km/h12000m5.8m/s-48.0°C5.5%211.6hPa0V00:00:0000:00:0000:00:00
PU1XMG-162026-09-02 12:02:13-22.78062-42.7177471°161km/h11959m5.4m/s-47.7°C5.6%212.9hPa0V00:00:0000:00:0000:00:00
PU1XMG-162026-09-02 12:02:09-22.78132-42.7198371°162km/h11926m7.0m/s-47.7°C5.5%213.9hPa0V00:00:0000:00:0000:00:00
PU1XMG-162026-09-02 12:02:00-22.78253-42.7232170°168km/h11874m6.7m/s-47.1°C5.6%215.6hPa0V00:00:0000:00:0000:00:00
PU1XMG-162026-09-02 12:01:56-22.78325-42.7253272°161km/h11845m6.0m/s-47.0°C5.3%216.6hPa0V00:00:0000:00:0000:00:00
PU1XMG-162026-09-02 12:01:50-22.78406-42.7278773°172km/h11813m5.1m/s-46.7°C5.4%217.6hPa0V00:00:0000:00:0000:00:00
PU1XMG-162026-09-02 12:01:45-22.78474-42.7300872°166km/h11785m5.8m/s-46.5°C5.2%218.6hPa0V00:00:0000:00:0000:00:00
PU1XMG-162026-09-02 12:01:38-22.78569-42.7331071°170km/h11744m5.1m/s-46.2°C5.2%219.9hPa0V00:00:0000:00:0000:00:00
PU1XMG-162026-09-02 12:01:33-22.78639-42.7353374°172km/h11714m6.7m/s-46.0°C5.3%220.9hPa0V00:00:0000:00:0000:00:00
PU1XMG-162026-09-02 12:01:24-22.78754-42.7391973°168km/h11653m9.5m/s-45.6°C5.1%222.9hPa0V00:00:0000:00:0000:00:00
PU1XMG-162026-09-02 12:01:17-22.78825-42.7419077°177km/h11614m8.4m/s-45.3°C5.1%224.2hPa0V00:00:0000:00:0000:00:00
PU1XMG-162026-09-02 12:01:12-22.78883-42.7441474°162km/h11587m6.8m/s-45.1°C5.0%225.1hPa0V00:00:0000:00:0000:00:00
PU1XMG-162026-09-02 12:01:08-22.78947-42.7462873°166km/h11555m6.0m/s-44.8°C5.0%226.3hPa0V00:00:0000:00:0000:00:00
PU1XMG-162026-09-02 12:01:01-22.79020-42.7489173°170km/h11521m5.6m/s-44.5°C4.8%227.4hPa0V00:00:0000:00:0000:00:00
PU1XMG-162026-09-02 12:00:55-22.79097-42.7515673°168km/h11486m6.0m/s-44.2°C4.8%228.6hPa0V00:00:0000:00:0000:00:00
PU1XMG-162026-09-02 12:00:51-22.79158-42.7536774°161km/h11460m6.8m/s-44.0°C4.9%229.5hPa0V00:00:0000:00:0000:00:00
PU1XMG-162026-09-02 12:00:46-22.79219-42.7558575°168km/h11432m6.9m/s-43.8°C5.4%230.5hPa0V00:00:0000:00:0000:00:00
PU1XMG-162026-09-02 12:00:41-22.79280-42.7580175°161km/h11406m4.1m/s-43.9°C5.8%231.4hPa0V00:00:0000:00:0000:00:00
PU1XMG-162026-09-02 12:00:36-22.79335-42.7600775°155km/h11381m4.0m/s-43.7°C6.3%232.2hPa0V00:00:0000:00:0000:00:00
PU1XMG-162026-09-02 12:00:30-22.79415-42.7626170°175km/h11351m7.2m/s-43.5°C7.0%233.2hPa0V00:00:0000:00:0000:00:00
PU1XMG-162026-09-02 12:00:24-22.79486-42.7652378°170km/h11312m7.3m/s-43.2°C7.0%234.6hPa0V00:00:0000:00:0000:00:00
PU1XMG-162026-09-02 12:00:18-22.79549-42.7675273°168km/h11276m4.8m/s-42.7°C7.0%235.9hPa0V00:00:0000:00:0000:00:00
PU1XMG-162026-09-02 12:00:13-22.79617-42.7701078°155km/h11239m8.9m/s-42.5°C6.7%237.2hPa0V00:00:0000:00:0000:00:00
PU1XMG-162026-09-02 12:00:07-22.79677-42.7727577°177km/h11202m8.5m/s-42.1°C6.9%238.5hPa0V00:00:0000:00:0000:00:00
PU1XMG-162026-09-02 12:00:00-22.79727-42.7754979°173km/h11160m5.6m/s-41.8°C6.9%240.0hPa0V00:00:0000:00:0000:00:00
PU1XMG-162026-09-02 11:59:54-22.79787-42.7783078°175km/h11122m6.5m/s-41.4°C6.8%241.2hPa0V00:00:0000:00:0000:00:00
PU1XMG-162026-09-02 11:59:50-22.79837-42.7805978°166km/h11092m6.3m/s-41.1°C6.6%242.4hPa0V00:00:0000:00:0000:00:00
PU1XMG-162026-09-02 11:59:45-22.79888-42.7828477°172km/h11063m4.1m/s-40.8°C6.8%243.3hPa0V00:00:0000:00:0000:00:00
PU1XMG-162026-09-02 11:59:39-22.79942-42.7852278°179km/h11037m5.2m/s-40.5°C7.2%244.3hPa0V00:00:0000:00:0000:00:00
PU1XMG-162026-09-02 11:59:35-22.80002-42.7879878°170km/h11003m6.3m/s-40.2°C7.1%245.5hPa0V00:00:0000:00:0000:00:00
PU1XMG-162026-09-02 11:59:28-22.80061-42.7906976°170km/h10969m7.6m/s-39.9°C6.7%246.7hPa0V00:00:0000:00:0000:00:00
PU1XMG-162026-09-02 11:59:21-22.80138-42.7939077°173km/h10929m6.3m/s-39.5°C6.6%248.2hPa0V00:00:0000:00:0000:00:00
PU1XMG-162026-09-02 11:59:15-22.80194-42.7961677°168km/h10901m7.4m/s-39.2°C6.2%249.2hPa0V00:00:0000:00:0000:00:00
PU1XMG-162026-09-02 11:59:09-22.80252-42.7989679°175km/h10862m5.6m/s-38.8°C6.1%250.7hPa0V00:00:0000:00:0000:00:00
PU1XMG-162026-09-02 11:59:04-22.80296-42.8013078°164km/h10830m4.0m/s-38.5°C5.8%251.8hPa0V00:00:0000:00:0000:00:00
PU1XMG-162026-09-02 11:58:58-22.80356-42.8040076°173km/h10790m8.2m/s-38.1°C5.5%253.3hPa0V00:00:0000:00:0000:00:00
PU1XMG-162026-09-02 11:58:53-22.80410-42.8063378°175km/h10760m6.0m/s-37.8°C5.2%254.5hPa0V00:00:0000:00:0000:00:00
PU1XMG-162026-09-02 11:58:48-22.80469-42.8085873°168km/h10729m4.5m/s-37.5°C5.3%255.6hPa0V00:00:0000:00:0000:00:00
PU1XMG-162026-09-02 11:58:43-22.80533-42.8113482°186km/h10696m6.8m/s-37.2°C5.0%256.8hPa0V00:00:0000:00:0000:00:00
PU1XMG-162026-09-02 11:58:37-22.80574-42.8137777°172km/h10668m10.1m/s-37.0°C4.8%257.8hPa0V00:00:0000:00:0000:00:00
PU1XMG-162026-09-02 11:58:33-22.80630-42.8159776°166km/h10629m8.6m/s-36.6°C4.7%259.3hPa0V00:00:0000:00:0000:00:00
PU1XMG-162026-09-02 11:58:26-22.80692-42.8186977°177km/h10590m6.9m/s-36.2°C4.8%260.6hPa0V00:00:0000:00:0000:00:00
PU1XMG-162026-09-02 11:58:21-22.80757-42.8215376°173km/h10559m5.2m/s-35.9°C4.7%261.9hPa0V00:00:0000:00:0000:00:00
PU1XMG-162026-09-02 11:58:16-22.80807-42.8238078°172km/h10527m6.4m/s-35.6°C4.5%263.1hPa0V00:00:0000:00:0000:00:00
PU1XMG-162026-09-02 11:58:10-22.80867-42.8265777°173km/h10494m4.9m/s-35.3°C4.5%264.3hPa0V00:00:0000:00:0000:00:00
PU1XMG-162026-09-02 11:58:05-22.80922-42.8288076°168km/h10467m6.1m/s-35.0°C4.5%265.4hPa0V00:00:0000:00:0000:00:00
PU1XMG-162026-09-02 11:57:50-22.81090-42.8354277°173km/h10362m6.3m/s-34.0°C4.0%269.3hPa0V00:00:0000:00:0000:00:00
PU1XMG-162026-09-02 11:57:41-22.81189-42.8395374°172km/h10309m4.8m/s-33.5°C3.9%271.2hPa0V00:00:0000:00:0000:00:00
PU1XMG-162026-09-02 11:57:35-22.81255-42.8418776°177km/h10287m5.2m/s-33.3°C3.9%272.1hPa0V00:00:0000:00:0000:00:00
PU1XMG-162026-09-02 11:57:30-22.81314-42.8446379°162km/h10252m6.3m/s-33.0°C4.0%273.5hPa0V00:00:0000:00:0000:00:00
PU1XMG-162026-09-02 11:57:24-22.81366-42.8468174°175km/h10225m5.5m/s-32.7°C4.0%274.5hPa0V00:00:0000:00:0000:00:00
PU1XMG-162026-09-02 11:57:20-22.81427-42.8490876°164km/h10189m5.3m/s-32.4°C4.1%275.9hPa0V00:00:0000:00:0000:00:00
PU1XMG-162026-09-02 11:57:14-22.81481-42.8518079°177km/h10154m5.6m/s-32.0°C4.2%277.3hPa0V00:00:0000:00:0000:00:00
PU1XMG-162026-09-02 11:57:08-22.81536-42.8541476°173km/h10131m3.7m/s-31.8°C4.2%278.2hPa0V00:00:0000:00:0000:00:00
PU1XMG-162026-09-02 11:57:04-22.81590-42.8563377°168km/h10108m3.0m/s-31.6°C4.1%279.1hPa0V00:00:0000:00:0000:00:00
PU1XMG-162026-09-02 11:56:57-22.81654-42.8591777°183km/h10080m6.6m/s-31.3°C4.3%280.2hPa0V00:00:0000:00:0000:00:00
PU1XMG-162026-09-02 11:56:52-22.81729-42.8619075°168km/h10051m4.9m/s-31.0°C4.2%281.4hPa0V00:00:0000:00:0000:00:00
PU1XMG-162026-09-02 11:56:46-22.81788-42.8642578°190km/h10017m7.5m/s-30.7°C3.9%282.6hPa0V00:00:0000:00:0000:00:00
PU1XMG-162026-09-02 11:56:41-22.81860-42.8671674°179km/h9970m8.6m/s-30.3°C4.1%284.5hPa0V00:00:0000:00:0000:00:00
PU1XMG-162026-09-02 11:56:35-22.81918-42.8694777°173km/h9941m6.4m/s-30.0°C4.2%285.7hPa0V00:00:0000:00:0000:00:00
PU1XMG-162026-09-02 11:56:30-22.81988-42.8722774°181km/h9910m4.5m/s-29.8°C4.2%286.9hPa0V00:00:0000:00:0000:00:00
PU1XMG-162026-09-02 11:56:25-22.82048-42.8746779°179km/h9881m4.4m/s-29.5°C4.3%288.0hPa0V00:00:0000:00:0000:00:00
PU1XMG-162026-09-02 11:56:18-22.82106-42.8774576°170km/h9843m7.0m/s-29.3°C4.3%289.5hPa0V00:00:0000:00:0000:00:00
PU1XMG-162026-09-02 11:56:13-22.82165-42.8796877°168km/h9810m7.3m/s-29.0°C4.2%290.9hPa0V00:00:0000:00:0000:00:00
PU1XMG-162026-09-02 11:56:08-22.82213-42.8819878°173km/h9777m6.7m/s-28.7°C3.9%292.3hPa0V00:00:0000:00:0000:00:00
PU1XMG-162026-09-02 11:56:03-22.82283-42.8846773°172km/h9734m6.3m/s-28.5°C3.7%294.0hPa0V00:00:0000:00:0000:00:00
PU1XMG-162026-09-02 11:55:57-22.82357-42.8874777°179km/h9696m4.5m/s-28.2°C3.7%295.6hPa0V00:00:0000:00:0000:00:00
PU1XMG-162026-09-02 11:55:52-22.82419-42.8898073°179km/h9665m9.5m/s-27.9°C3.7%296.9hPa0V00:00:0000:00:0000:00:00
PU1XMG-162026-09-02 11:55:47-22.82491-42.8921974°177km/h9633m6.1m/s-27.6°C3.6%298.3hPa0V00:00:0000:00:0000:00:00
PU1XMG-162026-09-02 11:55:41-22.82556-42.8944471°170km/h9594m8.3m/s-27.3°C3.4%299.9hPa0V00:00:0000:00:0000:00:00
PU1XMG-162026-09-02 11:55:37-22.82629-42.8966973°181km/h9556m7.0m/s-27.0°C2.8%301.4hPa0V00:00:0000:00:0000:00:00
PU1XMG-162026-09-02 11:55:30-22.82716-42.8994671°179km/h9508m5.5m/s-26.6°C2.2%303.4hPa0V00:00:0000:00:0000:00:00
PU1XMG-162026-09-02 11:55:25-22.82793-42.9017772°179km/h9472m6.8m/s-26.3°C2.0%304.9hPa0V00:00:0000:00:0000:00:00
PU1XMG-162026-09-02 11:55:20-22.82874-42.9040869°181km/h9438m5.7m/s-25.9°C1.8%306.4hPa0V00:00:0000:00:0000:00:00
PU1XMG-162026-09-02 11:55:15-22.82968-42.9068772°179km/h9392m8.2m/s-25.8°C1.7%308.2hPa0V00:00:0000:00:0000:00:00
PU1XMG-162026-09-02 11:55:10-22.83043-42.9091571°175km/h9359m6.0m/s-25.6°C1.7%309.7hPa0V00:00:0000:00:0000:00:00
PU1XMG-162026-09-02 11:55:04-22.83121-42.9114770°183km/h9324m8.0m/s-25.5°C1.7%311.1hPa0V00:00:0000:00:0000:00:00
PU1XMG-162026-09-02 11:54:59-22.83217-42.9141667°175km/h9282m9.9m/s-25.5°C1.7%312.9hPa0V00:00:0000:00:0000:00:00
PU1XMG-162026-09-02 11:54:53-22.83306-42.9163870°177km/h9243m9.3m/s-25.3°C1.9%314.8hPa0V00:00:0000:00:0000:00:00
PU1XMG-162026-09-02 11:54:46-22.83414-42.9196071°177km/h9180m7.3m/s-25.5°C2.2%317.5hPa0V00:00:0000:00:0000:00:00
PU1XMG-162026-09-02 11:54:40-22.83501-42.9223172°173km/h9139m9.2m/s-25.7°C2.3%319.4hPa0V00:00:0000:00:0000:00:00
PU1XMG-162026-09-02 11:54:35-22.83578-42.9245668°177km/h9097m8.9m/s-25.7°C2.6%321.3hPa0V00:00:0000:00:0000:00:00
PU1XMG-162026-09-02 11:54:30-22.83679-42.9273071°183km/h9050m5.1m/s-26.1°C2.8%323.3hPa0V00:00:0000:00:0000:00:00
PU1XMG-162026-09-02 11:54:24-22.83761-42.9295767°173km/h9019m5.4m/s-26.0°C2.8%324.8hPa0V00:00:0000:00:0000:00:00
PU1XMG-162026-09-02 11:54:13-22.83956-42.9342767°172km/h8938m8.7m/s-25.4°C2.6%328.4hPa0V00:00:0000:00:0000:00:00
PU1XMG-162026-09-02 11:54:07-22.84062-42.9368565°168km/h8885m8.9m/s-25.2°C2.6%330.7hPa0V00:00:0000:00:0000:00:00
PU1XMG-162026-09-02 11:54:03-22.84146-42.9388666°153km/h8843m9.3m/s-24.9°C2.5%332.6hPa0V00:00:0000:00:0000:00:00
PU1XMG-162026-09-02 11:53:58-22.84222-42.9408770°155km/h8800m10.5m/s-24.5°C2.4%334.6hPa0V00:00:0000:00:0000:00:00
PU1XMG-162026-09-02 11:53:51-22.84311-42.9432968°153km/h8751m10.0m/s-24.1°C2.3%336.8hPa0V00:00:0000:00:0000:00:00
PU1XMG-162026-09-02 11:53:47-22.84392-42.9452068°153km/h8711m6.9m/s-23.8°C2.2%338.7hPa0V00:00:0000:00:0000:00:00
PU1XMG-162026-09-02 11:53:41-22.84472-42.9476773°157km/h8675m6.2m/s-23.5°C2.1%340.4hPa0V00:00:0000:00:0000:00:00
PU1XMG-162026-09-02 11:53:35-22.84548-42.9496068°146km/h8643m9.7m/s-23.3°C2.0%341.9hPa0V00:00:0000:00:0000:00:00
PU1XMG-162026-09-02 11:53:29-22.84618-42.9518470°131km/h8606m5.0m/s-23.1°C2.0%343.7hPa0V00:00:0000:00:0000:00:00
PU1XMG-162026-09-02 11:53:25-22.84679-42.9537071°161km/h8573m6.4m/s-23.2°C1.9%345.1hPa0V00:00:0000:00:0000:00:00
PU1XMG-162026-09-02 11:53:20-22.84734-42.9557777°162km/h8545m8.5m/s-23.1°C1.8%346.3hPa0V00:00:0000:00:0000:00:00
PU1XMG-162026-09-02 11:53:14-22.84783-42.9581081°131km/h8496m6.2m/s-22.5°C1.8%348.8hPa0V00:00:0000:00:0000:00:00
PU1XMG-162026-09-02 11:53:08-22.84827-42.9598871°133km/h8466m10.8m/s-22.3°C1.8%350.2hPa0V00:00:0000:00:0000:00:00
PU1XMG-162026-09-02 11:53:03-22.84869-42.9616081°144km/h8427m5.4m/s-22.5°C1.8%352.1hPa0V00:00:0000:00:0000:00:00
PU1XMG-162026-09-02 11:52:57-22.84898-42.9638687°130km/h8382m4.1m/s-22.1°C1.8%354.3hPa0V00:00:0000:00:0000:00:00
PU1XMG-162026-09-02 11:52:46-22.84945-42.9675792°141km/h8294m6.2m/s-22.2°C1.8%358.5hPa0V00:00:0000:00:0000:00:00
PU1XMG-162026-09-02 11:52:41-22.84949-42.9693392°113km/h8262m5.6m/s-22.0°C1.8%360.0hPa0V00:00:0000:00:0000:00:00
PU1XMG-162026-09-02 11:52:35-22.84951-42.9714184°124km/h8227m5.5m/s-21.7°C1.8%361.6hPa0V00:00:0000:00:0000:00:00
PU1XMG-162026-09-02 11:52:30-22.84945-42.9734399°141km/h8187m5.2m/s-21.5°C1.8%363.5hPa0V00:00:0000:00:0000:00:00
PU1XMG-162026-09-02 11:52:23-22.84939-42.9755987°126km/h8143m4.6m/s-21.2°C1.8%365.8hPa0V00:00:0000:00:0000:00:00
PU1XMG-162026-09-02 11:52:17-22.84933-42.9778594°137km/h8107m8.5m/s-21.0°C1.8%367.5hPa0V00:00:0000:00:0000:00:00
PU1XMG-162026-09-02 11:52:12-22.84923-42.97948100°119km/h8074m5.8m/s-20.7°C1.8%369.1hPa0V00:00:0000:00:0000:00:00
PU1XMG-162026-09-02 11:52:07-22.84906-42.9811994°119km/h8045m8.0m/s-20.7°C1.8%370.6hPa0V00:00:0000:00:0000:00:00
PU1XMG-162026-09-02 11:52:02-22.84885-42.98280100°122km/h8010m8.8m/s-20.4°C1.9%372.3hPa0V00:00:0000:00:0000:00:00
PU1XMG-162026-09-02 11:51:57-22.84867-42.9844499°119km/h7974m4.9m/s-20.2°C1.9%374.2hPa0V00:00:0000:00:0000:00:00
PU1XMG-162026-09-02 11:51:51-22.84836-42.98651109°131km/h7937m6.0m/s-20.0°C1.9%376.2hPa0V00:00:0000:00:0000:00:00
PU1XMG-162026-09-02 11:51:47-22.84791-42.98813102°124km/h7906m5.0m/s-19.9°C2.0%377.8hPa0V00:00:0000:00:0000:00:00
PU1XMG-162026-09-02 11:51:41-22.84738-42.99022109°126km/h7870m5.5m/s-19.9°C2.2%379.7hPa0V00:00:0000:00:0000:00:00
PU1XMG-162026-09-02 11:51:35-22.84697-42.99195105°131km/h7839m7.7m/s-19.7°C2.3%381.2hPa0V00:00:0000:00:0000:00:00
PU1XMG-162026-09-02 11:51:30-22.84639-42.99413110°137km/h7800m8.8m/s-19.5°C2.4%383.2hPa0V00:00:0000:00:0000:00:00
PU1XMG-162026-09-02 11:51:25-22.84587-42.99584107°142km/h7767m4.0m/s-19.2°C2.3%384.9hPa0V00:00:0000:00:0000:00:00
PU1XMG-162026-09-02 11:51:19-22.84538-42.99770107°137km/h7737m9.4m/s-19.0°C2.3%386.4hPa0V00:00:0000:00:0000:00:00
PU1XMG-162026-09-02 11:51:13-22.84480-42.99986106°135km/h7698m5.1m/s-18.6°C2.4%388.4hPa0V00:00:0000:00:0000:00:00
PU1XMG-162026-09-02 11:51:09-22.84428-43.00171108°135km/h7670m5.7m/s-18.4°C2.4%389.9hPa0V00:00:0000:00:0000:00:00
PU1XMG-162026-09-02 11:51:03-22.84371-43.00384107°141km/h7643m5.2m/s-18.2°C2.4%391.4hPa0V00:00:0000:00:0000:00:00
PU1XMG-162026-09-02 11:50:58-22.84306-43.00561117°141km/h7617m4.6m/s-18.0°C2.3%392.7hPa0V00:00:0000:00:0000:00:00
PU1XMG-162026-09-02 11:50:52-22.84229-43.00780108°148km/h7579m8.9m/s-17.7°C2.3%394.6hPa0V00:00:0000:00:0000:00:00
PU1XMG-162026-09-02 11:50:46-22.84171-43.00973111°137km/h7548m6.4m/s-17.4°C2.2%396.2hPa0V00:00:0000:00:0000:00:00
PU1XMG-162026-09-02 11:50:41-22.84105-43.01185108°146km/h7509m8.2m/s-17.0°C2.2%398.1hPa0V00:00:0000:00:0000:00:00
PU1XMG-162026-09-02 11:50:35-22.84048-43.01374112°144km/h7479m5.6m/s-16.8°C2.2%399.9hPa0V00:00:0000:00:0000:00:00
PU1XMG-162026-09-02 11:50:30-22.83963-43.01595111°157km/h7449m6.1m/s-16.5°C2.2%401.4hPa0V00:00:0000:00:0000:00:00
PU1XMG-162026-09-02 11:50:24-22.83904-43.01792110°142km/h7414m5.5m/s-16.2°C2.2%403.3hPa0V00:00:0000:00:0000:00:00
PU1XMG-162026-09-02 11:50:19-22.83833-43.02022108°151km/h7374m10.9m/s-16.0°C2.1%405.5hPa0V00:00:0000:00:0000:00:00
PU1XMG-162026-09-02 11:50:07-22.83703-43.02466112°161km/h7296m5.5m/s-15.4°C2.1%409.4hPa0V00:00:0000:00:0000:00:00
PU1XMG-162026-09-02 11:50:02-22.83631-43.02711109°162km/h7257m6.8m/s-15.2°C2.1%411.7hPa0V00:00:0000:00:0000:00:00
PU1XMG-162026-09-02 11:49:56-22.83569-43.02922109°153km/h7232m5.4m/s-15.1°C2.2%413.3hPa0V00:00:0000:00:0000:00:00
PU1XMG-162026-09-02 11:49:52-22.83522-43.03120107°144km/h7200m7.8m/s-14.9°C2.1%415.0hPa0V00:00:0000:00:0000:00:00
PU1XMG-162026-09-02 11:49:47-22.83457-43.03323110°168km/h7166m7.7m/s-14.7°C2.1%416.8hPa0V00:00:0000:00:0000:00:00
PU1XMG-162026-09-02 11:49:42-22.83399-43.03542103°159km/h7137m6.4m/s-14.5°C2.1%418.4hPa0V00:00:0000:00:0000:00:00
PU1XMG-162026-09-02 11:49:35-22.83337-43.03784110°151km/h7103m5.2m/s-14.5°C2.1%420.2hPa0V00:00:0000:00:0000:00:00
PU1XMG-162026-09-02 11:49:31-22.83276-43.03991108°166km/h7076m7.4m/s-14.4°C2.2%421.8hPa0V00:00:0000:00:0000:00:00
PU1XMG-162026-09-02 11:49:25-22.83233-43.04201101°148km/h7045m5.1m/s-14.3°C2.2%423.5hPa0V00:00:0000:00:0000:00:00
PU1XMG-162026-09-02 11:49:20-22.83171-43.04466107°177km/h7009m6.5m/s-14.4°C2.2%425.4hPa0V00:00:0000:00:0000:00:00
PU1XMG-162026-09-02 11:49:14-22.83115-43.04693107°172km/h6984m8.0m/s-14.5°C2.2%426.8hPa0V00:00:0000:00:0000:00:00
PU1XMG-162026-09-02 11:49:09-22.83067-43.04920100°161km/h6959m7.0m/s-14.9°C2.2%428.2hPa0V00:00:0000:00:0000:00:00
PU1XMG-162026-09-02 11:49:04-22.83032-43.05136101°166km/h6928m5.3m/s-14.9°C2.2%430.0hPa0V00:00:0000:00:0000:00:00
PU1XMG-162026-09-02 11:48:59-22.83000-43.0536297°164km/h6901m5.7m/s-14.9°C2.1%431.4hPa0V00:00:0000:00:0000:00:00
PU1XMG-162026-09-02 11:48:53-22.82973-43.0562594°164km/h6863m6.1m/s-15.2°C2.0%433.5hPa0V00:00:0000:00:0000:00:00
PU1XMG-162026-09-02 11:48:48-22.82951-43.0584999°168km/h6831m5.0m/s-15.6°C1.9%435.4hPa0V00:00:0000:00:0000:00:00
PU1XMG-162026-09-02 11:48:43-22.82920-43.0607198°159km/h6803m8.5m/s-15.3°C1.9%437.0hPa0V00:00:0000:00:0000:00:00
PU1XMG-162026-09-02 11:48:38-22.82912-43.0631695°142km/h6761m8.4m/s-15.3°C1.8%439.5hPa0V00:00:0000:00:0000:00:00
PU1XMG-162026-09-02 11:48:31-22.82891-43.06556102°133km/h6716m6.8m/s-15.5°C1.8%442.1hPa0V00:00:0000:00:0000:00:00
PU1XMG-162026-09-02 11:48:22-22.82855-43.0691695°122km/h6643m6.1m/s-15.6°C1.8%446.4hPa0V00:00:0000:00:0000:00:00
PU1XMG-162026-09-02 11:48:16-22.82832-43.07094102°142km/h6604m10.7m/s-15.4°C1.8%448.8hPa0V00:00:0000:00:0000:00:00
PU1XMG-162026-09-02 11:48:10-22.82804-43.0729598°117km/h6562m10.4m/s-15.3°C1.8%451.1hPa0V00:00:0000:00:0000:00:00
PU1XMG-162026-09-02 11:48:06-22.82773-43.07461103°117km/h6526m5.6m/s-15.1°C1.9%453.5hPa0V00:00:0000:00:0000:00:00
PU1XMG-162026-09-02 11:48:01-22.82734-43.07621104°128km/h6491m7.0m/s-15.2°C2.0%455.4hPa0V00:00:0000:00:0000:00:00
PU1XMG-162026-09-02 11:47:55-22.82708-43.07783102°119km/h6457m7.9m/s-14.9°C1.9%457.5hPa0V00:00:0000:00:0000:00:00
PU1XMG-162026-09-02 11:47:49-22.82666-43.07978109°108km/h6416m4.6m/s-14.5°C2.0%460.1hPa0V00:00:0000:00:0000:00:00
PU1XMG-162026-09-02 11:47:45-22.82618-43.08129106°124km/h6383m5.3m/s-14.2°C2.0%462.1hPa0V00:00:0000:00:0000:00:00
PU1XMG-162026-09-02 11:47:39-22.82572-43.08286115°119km/h6355m5.6m/s-13.9°C2.0%464.0hPa0V00:00:0000:00:0000:00:00
PU1XMG-162026-09-02 11:47:33-22.82516-43.08477106°115km/h6319m7.8m/s-13.7°C2.2%466.2hPa0V00:00:0000:00:0000:00:00
PU1XMG-162026-09-02 11:47:27-22.82461-43.08662112°126km/h6279m6.7m/s-13.5°C2.5%468.4hPa0V00:00:0000:00:0000:00:00
PU1XMG-162026-09-02 11:47:22-22.82399-43.08850112°122km/h6242m5.1m/s-13.4°C3.2%470.6hPa0V00:00:0000:00:0000:00:00
PU1XMG-162026-09-02 11:47:15-22.82334-43.09032113°130km/h6200m5.3m/s-13.5°C4.3%473.2hPa0V00:00:0000:00:0000:00:00
PU1XMG-162026-09-02 11:47:10-22.82258-43.09227114°137km/h6157m8.2m/s-13.5°C6.5%475.8hPa0V00:00:0000:00:0000:00:00
PU1XMG-162026-09-02 11:47:03-22.82179-43.09431111°133km/h6121m5.2m/s-13.8°C9.0%478.1hPa0V00:00:0000:00:0000:00:00
PU1XMG-162026-09-02 11:46:58-22.82090-43.09635118°130km/h6082m4.1m/s-13.5°C9.3%480.7hPa0V00:00:0000:00:0000:00:00
PU1XMG-162026-09-02 11:46:52-22.82014-43.09800114°144km/h6058m4.3m/s-13.3°C9.7%482.2hPa0V00:00:0000:00:0000:00:00
PU1XMG-162026-09-02 11:46:47-22.81933-43.09981120°141km/h6027m5.7m/s-13.1°C9.7%484.0hPa0V00:00:0000:00:0000:00:00
PU1XMG-162026-09-02 11:46:43-22.81853-43.10144116°139km/h6000m4.8m/s-12.8°C8.9%486.0hPa0V00:00:0000:00:0000:00:00
PU1XMG-162026-09-02 11:46:36-22.81769-43.10346119°135km/h5962m6.6m/s-12.5°C8.6%488.2hPa0V00:00:0000:00:0000:00:00
PU1XMG-162026-09-02 11:46:30-22.81678-43.10541116°133km/h5921m7.9m/s-12.1°C6.4%490.9hPa0V00:00:0000:00:0000:00:00
PU1XMG-162026-09-02 11:46:24-22.81590-43.10732118°131km/h5883m7.0m/s-11.9°C4.5%493.3hPa0V00:00:0000:00:0000:00:00
PU1XMG-162026-09-02 11:46:18-22.81501-43.10917116°135km/h5849m6.6m/s-11.7°C3.2%495.6hPa0V00:00:0000:00:0000:00:00
PU1XMG-162026-09-02 11:46:13-22.81432-43.11082117°133km/h5815m6.3m/s-11.4°C3.0%497.8hPa0V00:00:0000:00:0000:00:00
PU1XMG-162026-09-02 11:46:07-22.81361-43.11269114°122km/h5773m9.1m/s-11.1°C2.7%500.5hPa0V00:00:0000:00:0000:00:00
PU1XMG-162026-09-02 11:46:02-22.81295-43.11427115°117km/h5738m5.0m/s-10.8°C2.5%502.5hPa0V00:00:0000:00:0000:00:00
PU1XMG-162026-09-02 11:45:57-22.81224-43.11617111°128km/h5699m7.7m/s-10.4°C2.3%505.1hPa0V00:00:0000:00:0000:00:00
PU1XMG-162026-09-02 11:45:51-22.81164-43.11779111°137km/h5670m5.6m/s-10.2°C2.2%507.0hPa0V00:00:0000:00:0000:00:00
PU1XMG-162026-09-02 11:45:47-22.81113-43.11939111°115km/h5641m5.5m/s-9.9°C2.0%509.1hPa0V00:00:0000:00:0000:00:00
PU1XMG-162026-09-02 11:45:42-22.81058-43.12091113°113km/h5605m5.4m/s-9.6°C1.9%511.5hPa0V00:00:0000:00:0000:00:00
PU1XMG-162026-09-02 11:45:35-22.80999-43.12276108°119km/h5567m8.3m/s-9.5°C1.8%514.0hPa0V00:00:0000:00:0000:00:00
PU1XMG-162026-09-02 11:45:30-22.80959-43.12466102°117km/h5526m7.1m/s-9.5°C2.4%516.7hPa0V00:00:0000:00:0000:00:00
PU1XMG-162026-09-02 11:45:25-22.80923-43.12623112°117km/h5491m7.4m/s-9.5°C3.3%519.1hPa0V00:00:0000:00:0000:00:00
PU1XMG-162026-09-02 11:45:19-22.80877-43.12782106°128km/h5455m7.2m/s-9.3°C3.8%521.4hPa0V00:00:0000:00:0000:00:00
PU1XMG-162026-09-02 11:45:14-22.80834-43.12941108°122km/h5421m6.2m/s-9.0°C4.5%523.8hPa0V00:00:0000:00:0000:00:00
PU1XMG-162026-09-02 11:45:08-22.80782-43.13136109°131km/h5384m6.7m/s-8.6°C4.4%526.3hPa0V00:00:0000:00:0000:00:00
PU1XMG-162026-09-02 11:45:03-22.80726-43.13294110°124km/h5353m6.5m/s-8.4°C4.8%528.5hPa0V00:00:0000:00:0000:00:00
PU1XMG-162026-09-02 11:44:58-22.80676-43.13451110°110km/h5322m4.6m/s-8.1°C5.1%530.5hPa0V00:00:0000:00:0000:00:00
PU1XMG-162026-09-02 11:44:52-22.80626-43.13635103°131km/h5289m5.5m/s-7.8°C4.9%532.9hPa0V00:00:0000:00:0000:00:00
PU1XMG-162026-09-02 11:44:47-22.80581-43.13801113°122km/h5257m3.0m/s-7.5°C4.7%534.9hPa0V00:00:0000:00:0000:00:00
PU1XMG-162026-09-02 11:44:41-22.80521-43.14008102°126km/h5219m4.5m/s-7.4°C6.4%537.3hPa0V00:00:0000:00:0000:00:00
PU1XMG-162026-09-02 11:44:36-22.80477-43.14164113°124km/h5191m7.9m/s-7.3°C6.5%539.3hPa0V00:00:0000:00:0000:00:00
PU1XMG-162026-09-02 11:44:30-22.80426-43.14370104°126km/h5152m5.3m/s-7.3°C9.9%542.4hPa0V00:00:0000:00:0000:00:00
PU1XMG-162026-09-02 11:44:25-22.80390-43.14541106°130km/h5121m5.3m/s-7.6°C16.2%544.3hPa0V00:00:0000:00:0000:00:00
PU1XMG-162026-09-02 11:44:19-22.80338-43.14730109°120km/h5084m4.0m/s-7.5°C17.9%546.9hPa0V00:00:0000:00:0000:00:00
PU1XMG-162026-09-02 11:44:15-22.80302-43.14891100°131km/h5054m4.1m/s-7.3°C17.1%548.9hPa0V00:00:0000:00:0000:00:00
PU1XMG-162026-09-02 11:44:08-22.80263-43.15101105°128km/h5022m6.6m/s-7.2°C17.5%551.3hPa0V00:00:0000:00:0000:00:00
PU1XMG-162026-09-02 11:44:03-22.80238-43.15262104°104km/h4994m5.1m/s-7.0°C18.3%553.4hPa0V00:00:0000:00:0000:00:00
PU1XMG-162026-09-02 11:43:58-22.80179-43.15449106°133km/h4958m6.2m/s-7.0°C30.6%556.1hPa0V00:00:0000:00:0000:00:00
PU1XMG-162026-09-02 11:43:51-22.80141-43.15639108°108km/h4920m5.5m/s-6.9°C33.7%558.5hPa0V00:00:0000:00:0000:00:00
PU1XMG-162026-09-02 11:43:46-22.80098-43.15793106°122km/h4892m7.0m/s-6.7°C36.1%560.5hPa0V00:00:0000:00:0000:00:00
PU1XMG-162026-09-02 11:43:41-22.80063-43.15952107°120km/h4860m4.0m/s-6.4°C37.8%562.7hPa0V00:00:0000:00:0000:00:00
PU1XMG-162026-09-02 11:43:35-22.80011-43.16127107°113km/h4825m7.1m/s-6.3°C42.1%565.3hPa0V00:00:0000:00:0000:00:00
PU1XMG-162026-09-02 11:43:30-22.79971-43.16278109°124km/h4793m5.8m/s-6.0°C42.8%567.7hPa0V00:00:0000:00:0000:00:00
PU1XMG-162026-09-02 11:43:25-22.79918-43.16432110°113km/h4763m6.1m/s-5.7°C43.4%569.9hPa0V00:00:0000:00:0000:00:00
PU1XMG-162026-09-02 11:43:20-22.79869-43.16580114°110km/h4733m5.7m/s-5.4°C43.7%572.0hPa0V00:00:0000:00:0000:00:00
PU1XMG-162026-09-02 11:43:14-22.79817-43.16749110°115km/h4698m6.4m/s-5.2°C45.0%574.6hPa0V00:00:0000:00:0000:00:00
PU1XMG-162026-09-02 11:43:09-22.79759-43.16917113°108km/h4662m6.5m/s-4.8°C44.1%577.3hPa0V00:00:0000:00:0000:00:00
PU1XMG-162026-09-02 11:43:02-22.79702-43.17085112°119km/h4624m5.1m/s-4.5°C43.3%580.0hPa0V00:00:0000:00:0000:00:00
PU1XMG-162026-09-02 11:42:56-22.79642-43.17265107°115km/h4589m6.8m/s-4.3°C44.3%582.6hPa0V00:00:0000:00:0000:00:00
PU1XMG-162026-09-02 11:42:50-22.79594-43.17436111°113km/h4546m4.9m/s-3.9°C43.8%585.7hPa0V00:00:0000:00:0000:00:00
PU1XMG-162026-09-02 11:42:44-22.79532-43.17617110°120km/h4510m6.2m/s-3.6°C46.0%588.3hPa0V00:00:0000:00:0000:00:00
PU1XMG-162026-09-02 11:42:39-22.79489-43.17756105°102km/h4481m7.6m/s-3.4°C46.1%590.5hPa0V00:00:0000:00:0000:00:00
PU1XMG-162026-09-02 11:42:33-22.79447-43.17918113°99km/h4445m4.7m/s-3.1°C44.8%593.3hPa0V00:00:0000:00:0000:00:00
PU1XMG-162026-09-02 11:42:27-22.79396-43.18082109°108km/h4407m7.7m/s-2.9°C43.5%596.1hPa0V00:00:0000:00:0000:00:00
PU1XMG-162026-09-02 11:42:21-22.79350-43.18256106°115km/h4369m7.7m/s-2.7°C28.5%598.8hPa0V00:00:0000:00:0000:00:00
PU1XMG-162026-09-02 11:42:16-22.79318-43.18397106°100km/h4336m6.4m/s-2.5°C29.7%601.4hPa0V00:00:0000:00:0000:00:00
PU1XMG-162026-09-02 11:42:10-22.79272-43.18566108°100km/h4296m4.8m/s-2.4°C32.9%604.3hPa0V00:00:0000:00:0000:00:00
PU1XMG-162026-09-02 11:42:05-22.79239-43.18705102°110km/h4268m6.4m/s-2.3°C34.0%606.6hPa0V00:00:0000:00:0000:00:00
PU1XMG-162026-09-02 11:41:59-22.79210-43.1887498°106km/h4230m4.5m/s-1.9°C25.7%609.7hPa0V00:00:0000:00:0000:00:00
PU1XMG-162026-09-02 11:41:54-22.79188-43.19009101°99km/h4196m9.7m/s-1.7°C22.0%612.1hPa0V00:00:0000:00:0000:00:00
PU1XMG-162026-09-02 11:41:48-22.79151-43.19168104°93km/h4157m6.6m/s-1.5°C19.3%615.0hPa0V00:00:0000:00:0000:00:00
PU1XMG-162026-09-02 11:41:38-22.79102-43.19422101°88km/h4099m6.2m/s-1.1°C15.5%619.8hPa0V00:00:0000:00:0000:00:00
PU1XMG-162026-09-02 11:41:32-22.79075-43.19573103°93km/h4060m7.8m/s-0.9°C12.5%622.7hPa0V00:00:0000:00:0000:00:00
PU1XMG-162026-09-02 11:41:19-22.79008-43.19867101°82km/h3976m6.0m/s-0.2°C11.1%629.0hPa0V00:00:0000:00:0000:00:00
PU1XMG-162026-09-02 11:41:14-22.78979-43.19985109°91km/h3943m6.4m/s0.1°C11.0%631.5hPa0V00:00:0000:00:0000:00:00
PU1XMG-162026-09-02 11:41:08-22.78949-43.20158102°82km/h3901m4.6m/s0.5°C11.0%635.0hPa0V00:00:0000:00:0000:00:00
PU1XMG-162026-09-02 11:41:02-22.78938-43.2026699°84km/h3870m6.9m/s0.8°C10.8%637.5hPa0V00:00:0000:00:0000:00:00
PU1XMG-162026-09-02 11:40:57-22.78921-43.20384100°89km/h3835m6.6m/s1.1°C10.4%640.3hPa0V00:00:0000:00:0000:00:00
PU1XMG-162026-09-02 11:40:51-22.78905-43.2053299°97km/h3797m6.9m/s1.4°C9.9%643.5hPa0V00:00:0000:00:0000:00:00
PU1XMG-162026-09-02 11:40:45-22.78885-43.20660103°75km/h3759m6.2m/s1.7°C9.0%646.6hPa0V00:00:0000:00:0000:00:00
PU1XMG-162026-09-02 11:40:39-22.78870-43.2079788°91km/h3725m8.0m/s1.9°C8.5%649.1hPa0V00:00:0000:00:0000:00:00
PU1XMG-162026-09-02 11:40:33-22.78866-43.2093997°89km/h3680m9.9m/s2.3°C8.0%652.7hPa0V00:00:0000:00:0000:00:00
PU1XMG-162026-09-02 11:40:28-22.78845-43.2106196°64km/h3637m5.7m/s2.6°C7.5%656.3hPa0V00:00:0000:00:0000:00:00
PU1XMG-162026-09-02 11:40:22-22.78836-43.2115699°77km/h3607m5.6m/s2.9°C7.3%658.8hPa0V00:00:0000:00:0000:00:00
PU1XMG-162026-09-02 11:40:16-22.78828-43.21285101°80km/h3570m4.4m/s3.2°C6.8%661.9hPa0V00:00:0000:00:0000:00:00
PU1XMG-162026-09-02 11:40:11-22.78821-43.2138789°68km/h3539m7.6m/s3.4°C6.6%664.2hPa0V00:00:0000:00:0000:00:00
PU1XMG-162026-09-02 11:40:06-22.78810-43.2148697°80km/h3506m3.3m/s3.5°C5.9%666.8hPa0V00:00:0000:00:0000:00:00
PU1XMG-162026-09-02 11:40:01-22.78802-43.2158689°66km/h3473m7.1m/s3.5°C5.6%669.8hPa0V00:00:0000:00:0000:00:00
PU1XMG-162026-09-02 11:39:55-22.78806-43.2170291°68km/h3431m5.8m/s3.1°C18.1%673.2hPa0V00:00:0000:00:0000:00:00
PU1XMG-162026-09-02 11:39:50-22.78817-43.2180682°60km/h3393m5.5m/s2.6°C48.5%676.4hPa0V00:00:0000:00:0000:00:00
PU1XMG-162026-09-02 11:39:44-22.78826-43.2190189°73km/h3360m7.8m/s2.3°C68.0%679.1hPa0V00:00:0000:00:0000:00:00
PU1XMG-162026-09-02 11:39:39-22.78828-43.2199488°71km/h3330m5.9m/s2.4°C66.4%681.7hPa0V00:00:0000:00:0000:00:00
PU1XMG-162026-09-02 11:39:33-22.78829-43.2210089°64km/h3291m6.3m/s2.3°C72.6%684.8hPa0V00:00:0000:00:0000:00:00
PU1XMG-162026-09-02 11:39:28-22.78829-43.2218084°57km/h3261m6.2m/s2.5°C69.3%687.5hPa0V00:00:0000:00:0000:00:00
PU1XMG-162026-09-02 11:39:23-22.78830-43.2226095°51km/h3234m7.1m/s2.7°C69.6%689.9hPa0V00:00:0000:00:0000:00:00
PU1XMG-162026-09-02 11:39:18-22.78836-43.2233588°68km/h3203m6.8m/s2.9°C66.1%692.5hPa0V00:00:0000:00:0000:00:00
PU1XMG-162026-09-02 11:39:12-22.78836-43.2243690°55km/h3164m7.0m/s3.2°C62.1%696.0hPa0V00:00:0000:00:0000:00:00
PU1XMG-162026-09-02 11:39:08-22.78842-43.2251882°58km/h3131m7.0m/s3.4°C60.8%698.6hPa0V00:00:0000:00:0000:00:00
PU1XMG-162026-09-02 11:39:01-22.78852-43.2260886°58km/h3094m6.5m/s3.8°C59.4%702.0hPa0V00:00:0000:00:0000:00:00
PU1XMG-162026-09-02 11:38:56-22.78842-43.22677102°49km/h3064m7.9m/s4.0°C53.0%704.5hPa0V00:00:0000:00:0000:00:00
PU1XMG-162026-09-02 11:38:50-22.78849-43.2276386°49km/h3018m8.9m/s4.3°C45.8%708.1hPa0V00:00:0000:00:0000:00:00
PU1XMG-162026-09-02 11:38:45-22.78861-43.2282777°55km/h2989m5.0m/s4.6°C41.1%710.9hPa0V00:00:0000:00:0000:00:00
PU1XMG-162026-09-02 11:38:39-22.78865-43.2291189°44km/h2955m8.1m/s4.4°C65.4%714.0hPa0V00:00:0000:00:0000:00:00
PU1XMG-162026-09-02 11:38:34-22.78871-43.2297086°38km/h2919m5.6m/s4.6°C69.1%716.9hPa0V00:00:0000:00:0000:00:00
PU1XMG-162026-09-02 11:38:28-22.78878-43.2304392°42km/h2883m4.8m/s4.6°C71.9%720.2hPa0V00:00:0000:00:0000:00:00
PU1XMG-162026-09-02 11:38:25-22.78883-43.2310389°49km/h2854m5.8m/s4.8°C71.3%722.8hPa0V00:00:0000:00:0000:00:00
PU1XMG-162026-09-02 11:38:17-22.78890-43.2317487°46km/h2816m6.1m/s5.0°C71.8%726.2hPa0V00:00:0000:00:0000:00:00
PU1XMG-162026-09-02 11:38:12-22.78898-43.2323282°44km/h2783m6.4m/s5.1°C66.6%729.0hPa0V00:00:0000:00:0000:00:00
PU1XMG-162026-09-02 11:38:06-22.78902-43.2329576°42km/h2745m7.0m/s5.2°C64.4%732.6hPa0V00:00:0000:00:0000:00:00
PU1XMG-162026-09-02 11:38:00-22.78927-43.2335968°44km/h2706m5.8m/s5.3°C66.0%736.2hPa0V00:00:0000:00:0000:00:00
PU1XMG-162026-09-02 11:37:55-22.78940-43.2340672°29km/h2678m7.3m/s5.4°C67.1%738.8hPa0V00:00:0000:00:0000:00:00
PU1XMG-162026-09-02 11:37:49-22.78951-43.2345673°26km/h2639m5.8m/s5.3°C75.9%742.2hPa0V00:00:0000:00:0000:00:00
PU1XMG-162026-09-02 11:37:44-22.78964-43.2349685°37km/h2606m6.7m/s5.2°C83.9%745.2hPa0V00:00:0000:00:0000:00:00
PU1XMG-162026-09-02 11:37:38-22.78974-43.2353789°20km/h2569m6.5m/s5.1°C87.2%748.6hPa0V00:00:0000:00:0000:00:00
PU1XMG-162026-09-02 11:37:33-22.78979-43.2357166°29km/h2541m7.7m/s5.1°C88.4%751.1hPa0V00:00:0000:00:0000:00:00
PU1XMG-162026-09-02 11:37:27-22.79000-43.2362154°35km/h2499m4.8m/s5.0°C90.8%754.8hPa0V00:00:0000:00:0000:00:00
PU1XMG-162026-09-02 11:37:22-22.79014-43.2365667°27km/h2466m9.2m/s4.3°C99.8%757.7hPa0V00:00:0000:00:0000:00:00
PU1XMG-162026-09-02 11:37:16-22.79043-43.2369752°22km/h2421m7.7m/s4.7°C0%761.8hPa0V00:00:0000:00:0000:00:00
PU1XMG-162026-09-02 11:37:11-22.79052-43.2372271°27km/h2388m4.1m/s4.9°C99.8%765.1hPa0V00:00:0000:00:0000:00:00
PU1XMG-162026-09-02 11:37:06-22.79069-43.2374742°26km/h2352m9.0m/s5.1°C98.7%768.6hPa0V00:00:0000:00:0000:00:00
PU1XMG-162026-09-02 11:37:01-22.79087-43.2377968°22km/h2319m6.2m/s5.4°C97.5%771.7hPa0V00:00:0000:00:0000:00:00
PU1XMG-162026-09-02 11:36:55-22.79103-43.2381260°20km/h2282m7.3m/s5.8°C95.8%775.2hPa0V00:00:0000:00:0000:00:00
PU1XMG-162026-09-02 11:36:49-22.79125-43.2384164°20km/h2242m5.2m/s6.1°C93.8%779.1hPa0V00:00:0000:00:0000:00:00
PU1XMG-162026-09-02 11:36:44-22.79146-43.2387350°26km/h2205m6.9m/s6.4°C92.1%782.5hPa0V00:00:0000:00:0000:00:00
PU1XMG-162026-09-02 11:36:39-22.79171-43.2390362°26km/h2176m5.6m/s6.5°C92.0%785.3hPa0V00:00:0000:00:0000:00:00
PU1XMG-162026-09-02 11:36:32-22.79196-43.2391917°24km/h2143m6.3m/s6.8°C90.4%788.3hPa0V00:00:0000:00:0000:00:00
PU1XMG-162026-09-02 11:36:27-22.79214-43.2393761°27km/h2107m8.1m/s7.0°C89.7%791.6hPa0V00:00:0000:00:0000:00:00
PU1XMG-162026-09-02 11:36:22-22.79242-43.2396234°22km/h2080m3.8m/s7.2°C89.9%794.3hPa0V00:00:0000:00:0000:00:00
PU1XMG-162026-09-02 11:36:17-22.79272-43.2398833°22km/h2042m5.8m/s7.4°C86.0%798.0hPa0V00:00:0000:00:0000:00:00
PU1XMG-162026-09-02 11:36:11-22.79292-43.2401248°27km/h2012m8.4m/s7.6°C83.8%800.6hPa0V00:00:0000:00:0000:00:00
PU1XMG-162026-09-02 11:36:06-22.79321-43.2403745°27km/h1982m5.5m/s7.9°C83.3%803.7hPa0V00:00:0000:00:0000:00:00
PU1XMG-162026-09-02 11:36:01-22.79349-43.2406246°27km/h1949m5.7m/s8.1°C84.9%807.1hPa0V00:00:0000:00:0000:00:00
PU1XMG-162026-09-02 11:35:55-22.79375-43.2407933°29km/h1919m5.3m/s8.3°C85.1%810.1hPa0V00:00:0000:00:0000:00:00
PU1XMG-162026-09-02 11:35:49-22.79403-43.2410745°29km/h1881m5.9m/s8.3°C78.7%813.7hPa0V00:00:0000:00:0000:00:00
PU1XMG-162026-09-02 11:35:43-22.79419-43.2413845°22km/h1846m6.3m/s8.4°C79.8%817.1hPa0V00:00:0000:00:0000:00:00
PU1XMG-162026-09-02 11:35:38-22.79442-43.2415936°22km/h1814m6.2m/s8.1°C88.6%820.3hPa0V00:00:0000:00:0000:00:00
PU1XMG-162026-09-02 11:35:32-22.79469-43.2417722°18km/h1777m7.3m/s8.4°C87.9%824.0hPa0V00:00:0000:00:0000:00:00
PU1XMG-162026-09-02 11:35:26-22.79517-43.2419538°33km/h1739m4.4m/s8.5°C87.0%827.6hPa0V00:00:0000:00:0000:00:00
PU1XMG-162026-09-02 11:35:20-22.79553-43.2421420°35km/h1708m5.8m/s8.7°C86.3%830.8hPa0V00:00:0000:00:0000:00:00
PU1XMG-162026-09-02 11:35:15-22.79585-43.2423126°24km/h1680m7.2m/s8.9°C84.7%833.6hPa0V00:00:0000:00:0000:00:00
PU1XMG-162026-09-02 11:35:10-22.79626-43.2424833km/h1646m6.0m/s9.2°C82.6%837.2hPa0V00:00:0000:00:0000:00:00
PU1XMG-162026-09-02 11:35:04-22.79669-43.2426035°27km/h1619m4.6m/s9.4°C80.9%839.9hPa0V00:00:0000:00:0000:00:00
PU1XMG-162026-09-02 11:34:58-22.79716-43.2427520°38km/h1583m6.5m/s9.8°C76.4%843.4hPa0V00:00:0000:00:0000:00:00
PU1XMG-162026-09-02 11:34:53-22.79755-43.2428515°31km/h1557m5.6m/s10.0°C71.4%846.1hPa0V00:00:0000:00:0000:00:00
PU1XMG-162026-09-02 11:34:49-22.79791-43.2429111°35km/h1528m4.8m/s10.0°C78.7%849.0hPa0V00:00:0000:00:0000:00:00
PU1XMG-162026-09-02 11:34:42-22.79836-43.2431016°31km/h1498m5.6m/s9.9°C84.0%852.1hPa0V00:00:0000:00:0000:00:00
PU1XMG-162026-09-02 11:34:36-22.79880-43.2432331km/h1467m5.7m/s10.1°C84.7%855.2hPa0V00:00:0000:00:0000:00:00
PU1XMG-162026-09-02 11:34:30-22.79929-43.24326350°31km/h1435m4.8m/s10.3°C79.7%858.6hPa0V00:00:0000:00:0000:00:00
PU1XMG-162026-09-02 11:34:25-22.79969-43.2433127°31km/h1410m4.2m/s10.4°C83.8%861.3hPa0V00:00:0000:00:0000:00:00
PU1XMG-162026-09-02 11:34:19-22.80017-43.2434014°26km/h1374m7.5m/s10.4°C89.9%864.8hPa0V00:00:0000:00:0000:00:00
PU1XMG-162026-09-02 11:34:13-22.80064-43.24352357°29km/h1341m4.9m/s10.7°C88.9%868.1hPa0V00:00:0000:00:0000:00:00
PU1XMG-162026-09-02 11:34:08-22.80097-43.2436021°37km/h1317m4.9m/s10.9°C88.6%870.8hPa0V00:00:0000:00:0000:00:00
PU1XMG-162026-09-02 11:34:03-22.80138-43.2436610°24km/h1291m5.5m/s11.1°C88.7%873.4hPa0V00:00:0000:00:0000:00:00
PU1XMG-162026-09-02 11:33:57-22.80190-43.2438317°42km/h1262m6.2m/s11.3°C87.2%876.5hPa0V00:00:0000:00:0000:00:00
PU1XMG-162026-09-02 11:33:53-22.80226-43.2439710°26km/h1235m6.2m/s11.3°C91.8%879.4hPa0V00:00:0000:00:0000:00:00
PU1XMG-162026-09-02 11:33:47-22.80253-43.2440710°24km/h1208m6.7m/s11.5°C91.6%882.3hPa0V00:00:0000:00:0000:00:00
PU1XMG-162026-09-02 11:33:42-22.80292-43.2440335km/h1173m6.5m/s11.7°C91.1%885.7hPa0V00:00:0000:00:0000:00:00
PU1XMG-162026-09-02 11:33:36-22.80335-43.2441716°29km/h1140m6.5m/s11.9°C91.5%889.4hPa0V00:00:0000:00:0000:00:00
PU1XMG-162026-09-02 11:33:31-22.80370-43.2443026km/h1112m4.8m/s12.2°C89.6%892.3hPa0V00:00:0000:00:0000:00:00
PU1XMG-162026-09-02 11:33:26-22.80402-43.2443522°20km/h1086m5.1m/s12.5°C88.1%895.1hPa0V00:00:0000:00:0000:00:00
PU1XMG-162026-09-02 11:33:22-22.80427-43.2444020°27km/h1060m5.8m/s12.6°C88.8%897.9hPa0V00:00:0000:00:0000:00:00
PU1XMG-162026-09-02 11:33:15-22.80474-43.2444429km/h1027m4.1m/s12.8°C91.4%901.1hPa0V00:00:0000:00:0000:00:00
PU1XMG-162026-09-02 11:33:11-22.80510-43.2446042°26km/h995m6.7m/s12.9°C92.5%904.6hPa0V00:00:0000:00:0000:00:00
PU1XMG-162026-09-02 11:33:06-22.80540-43.2447732°31km/h969m8.1m/s13.2°C90.5%907.5hPa0V00:00:0000:00:0000:00:00
PU1XMG-162026-09-02 11:33:00-22.80569-43.2449513°31km/h941m3.9m/s13.4°C90.6%910.5hPa0V00:00:0000:00:0000:00:00
PU1XMG-162026-09-02 11:32:54-22.80617-43.2450818°20km/h912m3.1m/s13.6°C92.1%913.9hPa0V00:00:0000:00:0000:00:00
PU1XMG-162026-09-02 11:32:49-22.80643-43.2452527°24km/h883m5.8m/s13.7°C92.7%916.7hPa0V00:00:0000:00:0000:00:00
PU1XMG-162026-09-02 11:32:43-22.80674-43.2454623°37km/h853m5.4m/s14.0°C91.9%919.9hPa0V00:00:0000:00:0000:00:00
PU1XMG-162026-09-02 11:32:38-22.80708-43.2456328°27km/h824m8.5m/s14.1°C94.2%923.1hPa0V00:00:0000:00:0000:00:00
PU1XMG-162026-09-02 11:32:32-22.80734-43.2458171°18km/h789m5.9m/s14.4°C92.4%927.0hPa0V00:00:0000:00:0000:00:00
PU1XMG-162026-09-02 11:32:27-22.80747-43.2460275°26km/h763m6.3m/s14.5°C95.6%930.0hPa0V00:00:0000:00:0000:00:00
PU1XMG-162026-09-02 11:32:21-22.80772-43.2465241°35km/h735m8.0m/s14.8°C92.6%933.2hPa0V00:00:0000:00:0000:00:00
PU1XMG-162026-09-02 11:32:15-22.80799-43.2468668°33km/h700m4.6m/s14.9°C0%937.0hPa0V00:00:0000:00:0000:00:00
PU1XMG-162026-09-02 11:32:10-22.80819-43.2471972°22km/h671m6.6m/s15.2°C0%939.9hPa0V00:00:0000:00:0000:00:00
PU1XMG-162026-09-02 11:32:04-22.80840-43.2474954°31km/h636m5.7m/s0°C0%943.7hPa0V00:00:0000:00:0000:00:00
PU1XMG-162026-09-02 11:31:58-22.80855-43.2478024°16km/h602m8.7m/s0°C0%947.6hPa0V00:00:0000:00:0000:00:00
PU1XMG-162026-09-02 11:31:52-22.80877-43.2479249°16km/h559m9.4m/s0°C0%952.1hPa0V00:00:0000:00:0000:00:00
PU1XMG-162026-09-02 11:31:47-22.80898-43.2481761°26km/h520m8.4m/s0°C0%0hPa0V00:00:0000:00:0000:00:00
PU1XMG-162026-09-02 11:31:42-22.80908-43.2483157°11km/h482m9.6m/s0°C0%0hPa0V00:00:0000:00:0000:00:00
PU1XMG-162026-09-02 11:31:36-22.80919-43.2484272°5km/h438m7.7m/s0°C0%0hPa0V00:00:0000:00:0000:00:00


GPX KML Map

© wettersonde.net (DO2JMG) - 2026  -  -